<?xml version="1.0" encoding="UTF-8" standalone="no" ?>
<gpx xmlns="http://www.topografix.com/GPX/1/1" xmlns:xsi="http://www.w3.org/2001/XMLSchema-instance" xsi:schemaLocation="http://www.topografix.com/GPX/1/1 http://www.topografix.com/GPX/1/1/gpx.xsd" version="1.1" creator="VisuGPX - https://www.visugpx.com">
  <metadata>
    <name>Plan Richard (Lauzière)</name>
    <desc><![CDATA[Sortie GreVTT pour aller tester le single de Plan Richard qui s\'avérera décevant...]]></desc>
  </metadata>
  <trk>
    <name><![CDATA[2011-08-20 09:18]]></name>
    <desc><![CDATA[<h1>OruxMaps</h1><br /><h2>Nom: 2011-08-20 09:18</h2><br /><p>Temps de départ: 08/20/2011 09:18</p><p>Temps d'arrivée: 08/20/2011 15:16</p><p>Distance: 21,9 km (05:58)</p><p>Temps déplacement: 02:55</p><p>Vitesse moyenne: 3,7 km/h</p><p>Vitesse moyenne7,5 km/h</p><p>Vitess Max.: 0 km/h</p><p>Altitude maximale: 381 m</p><p>Altitude minimale: 1740 m</p><p>Vitesse d'élévation: 300,5 m/h</p><p>Vitesse de descente: -719,9 m/h</p><p>Gain Altitude: 1434 m</p><p>Perte Altitude: -724 m</p><p>Temps d'élévation: 04:46</p><p>Temps de descente: 01:00</p>]]></desc>
    <trkseg>
      <trkpt lat="45.45384" lon="6.2968">
        <ele>395</ele>
        <time>2011-08-20T07:18:16Z</time>
      </trkpt>
      <trkpt lat="45.45403" lon="6.2967">
        <ele>395.33334</ele>
        <time>2011-08-20T07:23:05Z</time>
      </trkpt>
      <trkpt lat="45.45417" lon="6.2969">
        <ele>395.33334</ele>
        <time>2011-08-20T07:23:15Z</time>
      </trkpt>
      <trkpt lat="45.45425" lon="6.29713">
        <ele>394.66666</ele>
        <time>2011-08-20T07:23:26Z</time>
      </trkpt>
      <trkpt lat="45.45436" lon="6.29737">
        <ele>393.66666</ele>
        <time>2011-08-20T07:23:39Z</time>
      </trkpt>
      <trkpt lat="45.45439" lon="6.29765">
        <ele>393.66666</ele>
        <time>2011-08-20T07:23:51Z</time>
      </trkpt>
      <trkpt lat="45.4544" lon="6.29791">
        <ele>395.66666</ele>
        <time>2011-08-20T07:24:04Z</time>
      </trkpt>
      <trkpt lat="45.45447" lon="6.29816">
        <ele>398</ele>
        <time>2011-08-20T07:24:19Z</time>
      </trkpt>
      <trkpt lat="45.45455" lon="6.2984">
        <ele>399.33334</ele>
        <time>2011-08-20T07:24:29Z</time>
      </trkpt>
      <trkpt lat="45.45464" lon="6.29863">
        <ele>400</ele>
        <time>2011-08-20T07:24:41Z</time>
      </trkpt>
      <trkpt lat="45.45462" lon="6.29889">
        <ele>402.66666</ele>
        <time>2011-08-20T07:24:54Z</time>
      </trkpt>
      <trkpt lat="45.45448" lon="6.29908">
        <ele>406.66666</ele>
        <time>2011-08-20T07:25:03Z</time>
      </trkpt>
      <trkpt lat="45.45429" lon="6.29917">
        <ele>409.66666</ele>
        <time>2011-08-20T07:25:08Z</time>
      </trkpt>
      <trkpt lat="45.45407" lon="6.29922">
        <ele>410</ele>
        <time>2011-08-20T07:25:12Z</time>
      </trkpt>
      <trkpt lat="45.45389" lon="6.29924">
        <ele>409.33334</ele>
        <time>2011-08-20T07:25:15Z</time>
      </trkpt>
      <trkpt lat="45.45366" lon="6.29925">
        <ele>409</ele>
        <time>2011-08-20T07:25:18Z</time>
      </trkpt>
      <trkpt lat="45.45342" lon="6.29927">
        <ele>408.66666</ele>
        <time>2011-08-20T07:25:21Z</time>
      </trkpt>
      <trkpt lat="45.45316" lon="6.29926">
        <ele>408</ele>
        <time>2011-08-20T07:25:24Z</time>
      </trkpt>
      <trkpt lat="45.45284" lon="6.29928">
        <ele>407</ele>
        <time>2011-08-20T07:25:28Z</time>
      </trkpt>
      <trkpt lat="45.45264" lon="6.29931">
        <ele>406.33334</ele>
        <time>2011-08-20T07:25:31Z</time>
      </trkpt>
      <trkpt lat="45.45245" lon="6.29932">
        <ele>406.33334</ele>
        <time>2011-08-20T07:25:34Z</time>
      </trkpt>
      <trkpt lat="45.4522" lon="6.29931">
        <ele>406.33334</ele>
        <time>2011-08-20T07:25:41Z</time>
      </trkpt>
      <trkpt lat="45.45202" lon="6.29928">
        <ele>406.33334</ele>
        <time>2011-08-20T07:25:49Z</time>
      </trkpt>
      <trkpt lat="45.45182" lon="6.29922">
        <ele>407.33334</ele>
        <time>2011-08-20T07:25:58Z</time>
      </trkpt>
      <trkpt lat="45.4516" lon="6.29924">
        <ele>408.66666</ele>
        <time>2011-08-20T07:26:07Z</time>
      </trkpt>
      <trkpt lat="45.45141" lon="6.29913">
        <ele>411</ele>
        <time>2011-08-20T07:26:17Z</time>
      </trkpt>
      <trkpt lat="45.45128" lon="6.29894">
        <ele>411.33334</ele>
        <time>2011-08-20T07:26:24Z</time>
      </trkpt>
      <trkpt lat="45.45119" lon="6.29865">
        <ele>411.66666</ele>
        <time>2011-08-20T07:26:30Z</time>
      </trkpt>
      <trkpt lat="45.45108" lon="6.29844">
        <ele>411</ele>
        <time>2011-08-20T07:26:34Z</time>
      </trkpt>
      <trkpt lat="45.45094" lon="6.29826">
        <ele>411.66666</ele>
        <time>2011-08-20T07:26:41Z</time>
      </trkpt>
      <trkpt lat="45.45076" lon="6.29821">
        <ele>412</ele>
        <time>2011-08-20T07:26:47Z</time>
      </trkpt>
      <trkpt lat="45.45054" lon="6.29818">
        <ele>413</ele>
        <time>2011-08-20T07:26:59Z</time>
      </trkpt>
      <trkpt lat="45.45039" lon="6.298">
        <ele>413</ele>
        <time>2011-08-20T07:27:07Z</time>
      </trkpt>
      <trkpt lat="45.45024" lon="6.29782">
        <ele>413</ele>
        <time>2011-08-20T07:27:15Z</time>
      </trkpt>
      <trkpt lat="45.45011" lon="6.29754">
        <ele>413</ele>
        <time>2011-08-20T07:27:25Z</time>
      </trkpt>
      <trkpt lat="45.45001" lon="6.29728">
        <ele>413.33334</ele>
        <time>2011-08-20T07:27:30Z</time>
      </trkpt>
      <trkpt lat="45.44988" lon="6.29703">
        <ele>414</ele>
        <time>2011-08-20T07:27:34Z</time>
      </trkpt>
      <trkpt lat="45.44971" lon="6.29679">
        <ele>413.66666</ele>
        <time>2011-08-20T07:27:38Z</time>
      </trkpt>
      <trkpt lat="45.44953" lon="6.29661">
        <ele>413</ele>
        <time>2011-08-20T07:27:42Z</time>
      </trkpt>
      <trkpt lat="45.44939" lon="6.29645">
        <ele>412.33334</ele>
        <time>2011-08-20T07:27:45Z</time>
      </trkpt>
      <trkpt lat="45.44923" lon="6.29627">
        <ele>412</ele>
        <time>2011-08-20T07:27:48Z</time>
      </trkpt>
      <trkpt lat="45.44906" lon="6.29613">
        <ele>412</ele>
        <time>2011-08-20T07:27:51Z</time>
      </trkpt>
      <trkpt lat="45.44889" lon="6.29598">
        <ele>411.66666</ele>
        <time>2011-08-20T07:27:54Z</time>
      </trkpt>
      <trkpt lat="45.44866" lon="6.29591">
        <ele>411.66666</ele>
        <time>2011-08-20T07:27:57Z</time>
      </trkpt>
      <trkpt lat="45.44843" lon="6.29588">
        <ele>410.66666</ele>
        <time>2011-08-20T07:28:00Z</time>
      </trkpt>
      <trkpt lat="45.44817" lon="6.29588">
        <ele>409.33334</ele>
        <time>2011-08-20T07:28:04Z</time>
      </trkpt>
      <trkpt lat="45.44795" lon="6.29592">
        <ele>407.33334</ele>
        <time>2011-08-20T07:28:08Z</time>
      </trkpt>
      <trkpt lat="45.44775" lon="6.2959">
        <ele>406.33334</ele>
        <time>2011-08-20T07:28:12Z</time>
      </trkpt>
      <trkpt lat="45.4475" lon="6.29575">
        <ele>406.33334</ele>
        <time>2011-08-20T07:28:17Z</time>
      </trkpt>
      <trkpt lat="45.44736" lon="6.29552">
        <ele>406.66666</ele>
        <time>2011-08-20T07:28:20Z</time>
      </trkpt>
      <trkpt lat="45.44726" lon="6.29522">
        <ele>406.66666</ele>
        <time>2011-08-20T07:28:23Z</time>
      </trkpt>
      <trkpt lat="45.44709" lon="6.295">
        <ele>406.33334</ele>
        <time>2011-08-20T07:28:26Z</time>
      </trkpt>
      <trkpt lat="45.44687" lon="6.29469">
        <ele>405.33334</ele>
        <time>2011-08-20T07:28:30Z</time>
      </trkpt>
      <trkpt lat="45.44674" lon="6.2944">
        <ele>404</ele>
        <time>2011-08-20T07:28:33Z</time>
      </trkpt>
      <trkpt lat="45.44667" lon="6.29417">
        <ele>402.33334</ele>
        <time>2011-08-20T07:28:36Z</time>
      </trkpt>
      <trkpt lat="45.44649" lon="6.29395">
        <ele>400.66666</ele>
        <time>2011-08-20T07:28:43Z</time>
      </trkpt>
      <trkpt lat="45.44628" lon="6.294">
        <ele>398.66666</ele>
        <time>2011-08-20T07:28:48Z</time>
      </trkpt>
      <trkpt lat="45.44609" lon="6.29407">
        <ele>396</ele>
        <time>2011-08-20T07:28:53Z</time>
      </trkpt>
      <trkpt lat="45.44589" lon="6.29412">
        <ele>394</ele>
        <time>2011-08-20T07:28:58Z</time>
      </trkpt>
      <trkpt lat="45.44569" lon="6.29416">
        <ele>392.66666</ele>
        <time>2011-08-20T07:29:03Z</time>
      </trkpt>
      <trkpt lat="45.44542" lon="6.29411">
        <ele>392.33334</ele>
        <time>2011-08-20T07:29:09Z</time>
      </trkpt>
      <trkpt lat="45.44527" lon="6.2943">
        <ele>391.66666</ele>
        <time>2011-08-20T07:29:15Z</time>
      </trkpt>
      <trkpt lat="45.44516" lon="6.29453">
        <ele>391</ele>
        <time>2011-08-20T07:29:24Z</time>
      </trkpt>
      <trkpt lat="45.44504" lon="6.29474">
        <ele>390</ele>
        <time>2011-08-20T07:29:31Z</time>
      </trkpt>
      <trkpt lat="45.4449" lon="6.2949">
        <ele>389</ele>
        <time>2011-08-20T07:29:37Z</time>
      </trkpt>
      <trkpt lat="45.44479" lon="6.29511">
        <ele>388.33334</ele>
        <time>2011-08-20T07:29:51Z</time>
      </trkpt>
      <trkpt lat="45.44494" lon="6.29494">
        <ele>387.66666</ele>
        <time>2011-08-20T07:30:04Z</time>
      </trkpt>
      <trkpt lat="45.44506" lon="6.29473">
        <ele>387</ele>
        <time>2011-08-20T07:30:10Z</time>
      </trkpt>
      <trkpt lat="45.44519" lon="6.29447">
        <ele>387.33334</ele>
        <time>2011-08-20T07:30:16Z</time>
      </trkpt>
      <trkpt lat="45.44533" lon="6.29427">
        <ele>388.33334</ele>
        <time>2011-08-20T07:30:21Z</time>
      </trkpt>
      <trkpt lat="45.44552" lon="6.29419">
        <ele>389</ele>
        <time>2011-08-20T07:30:29Z</time>
      </trkpt>
      <trkpt lat="45.44572" lon="6.29421">
        <ele>388.33334</ele>
        <time>2011-08-20T07:30:36Z</time>
      </trkpt>
      <trkpt lat="45.44592" lon="6.29416">
        <ele>388</ele>
        <time>2011-08-20T07:30:44Z</time>
      </trkpt>
      <trkpt lat="45.44612" lon="6.29411">
        <ele>387.66666</ele>
        <time>2011-08-20T07:30:50Z</time>
      </trkpt>
      <trkpt lat="45.4463" lon="6.29405">
        <ele>387</ele>
        <time>2011-08-20T07:30:56Z</time>
      </trkpt>
      <trkpt lat="45.4465" lon="6.29396">
        <ele>386</ele>
        <time>2011-08-20T07:31:02Z</time>
      </trkpt>
      <trkpt lat="45.4467" lon="6.29392">
        <ele>386.33334</ele>
        <time>2011-08-20T07:31:08Z</time>
      </trkpt>
      <trkpt lat="45.44692" lon="6.29388">
        <ele>387</ele>
        <time>2011-08-20T07:31:13Z</time>
      </trkpt>
      <trkpt lat="45.44719" lon="6.2938">
        <ele>387</ele>
        <time>2011-08-20T07:31:19Z</time>
      </trkpt>
      <trkpt lat="45.44738" lon="6.29372">
        <ele>386.33334</ele>
        <time>2011-08-20T07:31:23Z</time>
      </trkpt>
      <trkpt lat="45.44757" lon="6.29361">
        <ele>386</ele>
        <time>2011-08-20T07:31:27Z</time>
      </trkpt>
      <trkpt lat="45.44775" lon="6.29342">
        <ele>385.66666</ele>
        <time>2011-08-20T07:31:32Z</time>
      </trkpt>
      <trkpt lat="45.4476" lon="6.29314">
        <ele>384.66666</ele>
        <time>2011-08-20T07:31:39Z</time>
      </trkpt>
      <trkpt lat="45.44733" lon="6.29295">
        <ele>383.66666</ele>
        <time>2011-08-20T07:31:45Z</time>
      </trkpt>
      <trkpt lat="45.44714" lon="6.29279">
        <ele>382.66666</ele>
        <time>2011-08-20T07:31:49Z</time>
      </trkpt>
      <trkpt lat="45.44694" lon="6.29265">
        <ele>382.33334</ele>
        <time>2011-08-20T07:31:53Z</time>
      </trkpt>
      <trkpt lat="45.44671" lon="6.29251">
        <ele>381.66666</ele>
        <time>2011-08-20T07:31:58Z</time>
      </trkpt>
      <trkpt lat="45.44653" lon="6.29237">
        <ele>381.66666</ele>
        <time>2011-08-20T07:32:02Z</time>
      </trkpt>
      <trkpt lat="45.44636" lon="6.29225">
        <ele>381.66666</ele>
        <time>2011-08-20T07:32:06Z</time>
      </trkpt>
      <trkpt lat="45.44613" lon="6.29207">
        <ele>382</ele>
        <time>2011-08-20T07:32:11Z</time>
      </trkpt>
      <trkpt lat="45.44597" lon="6.29194">
        <ele>382</ele>
        <time>2011-08-20T07:32:15Z</time>
      </trkpt>
      <trkpt lat="45.44578" lon="6.2918">
        <ele>382</ele>
        <time>2011-08-20T07:32:19Z</time>
      </trkpt>
      <trkpt lat="45.44556" lon="6.29168">
        <ele>382</ele>
        <time>2011-08-20T07:32:24Z</time>
      </trkpt>
      <trkpt lat="45.44538" lon="6.29168">
        <ele>381.33334</ele>
        <time>2011-08-20T07:32:29Z</time>
      </trkpt>
      <trkpt lat="45.44527" lon="6.29194">
        <ele>381.66666</ele>
        <time>2011-08-20T07:32:34Z</time>
      </trkpt>
      <trkpt lat="45.44519" lon="6.29217">
        <ele>382</ele>
        <time>2011-08-20T07:32:38Z</time>
      </trkpt>
      <trkpt lat="45.44507" lon="6.2924">
        <ele>383</ele>
        <time>2011-08-20T07:32:42Z</time>
      </trkpt>
      <trkpt lat="45.44494" lon="6.29258">
        <ele>382.66666</ele>
        <time>2011-08-20T07:32:46Z</time>
      </trkpt>
      <trkpt lat="45.44475" lon="6.29274">
        <ele>382</ele>
        <time>2011-08-20T07:32:51Z</time>
      </trkpt>
      <trkpt lat="45.44457" lon="6.29284">
        <ele>382</ele>
        <time>2011-08-20T07:32:56Z</time>
      </trkpt>
      <trkpt lat="45.44433" lon="6.29292">
        <ele>382.66666</ele>
        <time>2011-08-20T07:33:03Z</time>
      </trkpt>
      <trkpt lat="45.44414" lon="6.293">
        <ele>384.33334</ele>
        <time>2011-08-20T07:33:11Z</time>
      </trkpt>
      <trkpt lat="45.44398" lon="6.2931">
        <ele>386.33334</ele>
        <time>2011-08-20T07:33:21Z</time>
      </trkpt>
      <trkpt lat="45.4438" lon="6.29318">
        <ele>388.66666</ele>
        <time>2011-08-20T07:33:31Z</time>
      </trkpt>
      <trkpt lat="45.44365" lon="6.29333">
        <ele>390</ele>
        <time>2011-08-20T07:33:42Z</time>
      </trkpt>
      <trkpt lat="45.44345" lon="6.29326">
        <ele>391</ele>
        <time>2011-08-20T07:33:55Z</time>
      </trkpt>
      <trkpt lat="45.4433" lon="6.29307">
        <ele>390.66666</ele>
        <time>2011-08-20T07:34:08Z</time>
      </trkpt>
      <trkpt lat="45.44314" lon="6.29291">
        <ele>391</ele>
        <time>2011-08-20T07:34:27Z</time>
      </trkpt>
      <trkpt lat="45.443" lon="6.29275">
        <ele>392.33334</ele>
        <time>2011-08-20T07:34:41Z</time>
      </trkpt>
      <trkpt lat="45.44285" lon="6.29259">
        <ele>394</ele>
        <time>2011-08-20T07:34:52Z</time>
      </trkpt>
      <trkpt lat="45.44269" lon="6.29246">
        <ele>395.66666</ele>
        <time>2011-08-20T07:35:05Z</time>
      </trkpt>
      <trkpt lat="45.44251" lon="6.29236">
        <ele>396.66666</ele>
        <time>2011-08-20T07:35:17Z</time>
      </trkpt>
      <trkpt lat="45.44234" lon="6.29224">
        <ele>398.33334</ele>
        <time>2011-08-20T07:35:30Z</time>
      </trkpt>
      <trkpt lat="45.44215" lon="6.2921">
        <ele>400.66666</ele>
        <time>2011-08-20T07:35:45Z</time>
      </trkpt>
      <trkpt lat="45.44196" lon="6.29198">
        <ele>404.33334</ele>
        <time>2011-08-20T07:35:55Z</time>
      </trkpt>
      <trkpt lat="45.44177" lon="6.2919">
        <ele>409</ele>
        <time>2011-08-20T07:36:14Z</time>
      </trkpt>
      <trkpt lat="45.44155" lon="6.29188">
        <ele>412.66666</ele>
        <time>2011-08-20T07:36:22Z</time>
      </trkpt>
      <trkpt lat="45.44168" lon="6.2921">
        <ele>413.33334</ele>
        <time>2011-08-20T07:36:54Z</time>
      </trkpt>
      <trkpt lat="45.44183" lon="6.29225">
        <ele>413</ele>
        <time>2011-08-20T07:37:02Z</time>
      </trkpt>
      <trkpt lat="45.44195" lon="6.29246">
        <ele>413.33334</ele>
        <time>2011-08-20T07:37:16Z</time>
      </trkpt>
      <trkpt lat="45.44201" lon="6.2927">
        <ele>415</ele>
        <time>2011-08-20T07:38:22Z</time>
      </trkpt>
      <trkpt lat="45.4421" lon="6.29297">
        <ele>417.66666</ele>
        <time>2011-08-20T07:38:29Z</time>
      </trkpt>
      <trkpt lat="45.44219" lon="6.2932">
        <ele>421</ele>
        <time>2011-08-20T07:38:35Z</time>
      </trkpt>
      <trkpt lat="45.44228" lon="6.29346">
        <ele>424.33334</ele>
        <time>2011-08-20T07:38:42Z</time>
      </trkpt>
      <trkpt lat="45.44222" lon="6.29371">
        <ele>425.66666</ele>
        <time>2011-08-20T07:38:50Z</time>
      </trkpt>
      <trkpt lat="45.44228" lon="6.29398">
        <ele>425.66666</ele>
        <time>2011-08-20T07:39:01Z</time>
      </trkpt>
      <trkpt lat="45.44232" lon="6.29425">
        <ele>426.33334</ele>
        <time>2011-08-20T07:39:16Z</time>
      </trkpt>
      <trkpt lat="45.44247" lon="6.29441">
        <ele>428</ele>
        <time>2011-08-20T07:39:24Z</time>
      </trkpt>
      <trkpt lat="45.44263" lon="6.29455">
        <ele>430</ele>
        <time>2011-08-20T07:39:31Z</time>
      </trkpt>
      <trkpt lat="45.44245" lon="6.2945">
        <ele>431.33334</ele>
        <time>2011-08-20T07:39:49Z</time>
      </trkpt>
      <trkpt lat="45.44227" lon="6.29441">
        <ele>433.33334</ele>
        <time>2011-08-20T07:39:57Z</time>
      </trkpt>
      <trkpt lat="45.44211" lon="6.29425">
        <ele>435</ele>
        <time>2011-08-20T07:40:04Z</time>
      </trkpt>
      <trkpt lat="45.44194" lon="6.29403">
        <ele>436.66666</ele>
        <time>2011-08-20T07:40:13Z</time>
      </trkpt>
      <trkpt lat="45.44183" lon="6.29381">
        <ele>436.66666</ele>
        <time>2011-08-20T07:40:22Z</time>
      </trkpt>
      <trkpt lat="45.44176" lon="6.29355">
        <ele>437</ele>
        <time>2011-08-20T07:40:33Z</time>
      </trkpt>
      <trkpt lat="45.44165" lon="6.29334">
        <ele>438</ele>
        <time>2011-08-20T07:40:43Z</time>
      </trkpt>
      <trkpt lat="45.44146" lon="6.29322">
        <ele>441.33334</ele>
        <time>2011-08-20T07:41:11Z</time>
      </trkpt>
      <trkpt lat="45.44129" lon="6.29317">
        <ele>445</ele>
        <time>2011-08-20T07:41:15Z</time>
      </trkpt>
      <trkpt lat="45.44109" lon="6.29308">
        <ele>447.66666</ele>
        <time>2011-08-20T07:41:21Z</time>
      </trkpt>
      <trkpt lat="45.44091" lon="6.29294">
        <ele>449</ele>
        <time>2011-08-20T07:41:27Z</time>
      </trkpt>
      <trkpt lat="45.44082" lon="6.29271">
        <ele>450</ele>
        <time>2011-08-20T07:41:39Z</time>
      </trkpt>
      <trkpt lat="45.44071" lon="6.29249">
        <ele>451</ele>
        <time>2011-08-20T07:41:48Z</time>
      </trkpt>
      <trkpt lat="45.44053" lon="6.29239">
        <ele>453.33334</ele>
        <time>2011-08-20T07:42:01Z</time>
      </trkpt>
      <trkpt lat="45.44033" lon="6.29229">
        <ele>457.33334</ele>
        <time>2011-08-20T07:42:17Z</time>
      </trkpt>
      <trkpt lat="45.44016" lon="6.29219">
        <ele>463</ele>
        <time>2011-08-20T07:42:26Z</time>
      </trkpt>
      <trkpt lat="45.43993" lon="6.29207">
        <ele>467.66666</ele>
        <time>2011-08-20T07:42:38Z</time>
      </trkpt>
      <trkpt lat="45.43974" lon="6.29197">
        <ele>472</ele>
        <time>2011-08-20T07:42:49Z</time>
      </trkpt>
      <trkpt lat="45.43956" lon="6.29186">
        <ele>475</ele>
        <time>2011-08-20T07:43:09Z</time>
      </trkpt>
      <trkpt lat="45.43937" lon="6.29175">
        <ele>477.66666</ele>
        <time>2011-08-20T07:43:17Z</time>
      </trkpt>
      <trkpt lat="45.43914" lon="6.29163">
        <ele>479.33334</ele>
        <time>2011-08-20T07:43:30Z</time>
      </trkpt>
      <trkpt lat="45.43897" lon="6.29154">
        <ele>481.33334</ele>
        <time>2011-08-20T07:43:38Z</time>
      </trkpt>
      <trkpt lat="45.43881" lon="6.29139">
        <ele>484</ele>
        <time>2011-08-20T07:43:54Z</time>
      </trkpt>
      <trkpt lat="45.43863" lon="6.29126">
        <ele>486</ele>
        <time>2011-08-20T07:44:09Z</time>
      </trkpt>
      <trkpt lat="45.43847" lon="6.29111">
        <ele>487.33334</ele>
        <time>2011-08-20T07:44:13Z</time>
      </trkpt>
      <trkpt lat="45.43831" lon="6.29093">
        <ele>487</ele>
        <time>2011-08-20T07:44:20Z</time>
      </trkpt>
      <trkpt lat="45.43813" lon="6.29078">
        <ele>487.33334</ele>
        <time>2011-08-20T07:44:28Z</time>
      </trkpt>
      <trkpt lat="45.43795" lon="6.29065">
        <ele>487.33334</ele>
        <time>2011-08-20T07:44:36Z</time>
      </trkpt>
      <trkpt lat="45.43782" lon="6.29044">
        <ele>488.33334</ele>
        <time>2011-08-20T07:44:47Z</time>
      </trkpt>
      <trkpt lat="45.43784" lon="6.29072">
        <ele>488.66666</ele>
        <time>2011-08-20T07:45:35Z</time>
      </trkpt>
      <trkpt lat="45.43797" lon="6.29094">
        <ele>490.33334</ele>
        <time>2011-08-20T07:45:42Z</time>
      </trkpt>
      <trkpt lat="45.43807" lon="6.29119">
        <ele>492</ele>
        <time>2011-08-20T07:45:51Z</time>
      </trkpt>
      <trkpt lat="45.43819" lon="6.29144">
        <ele>494.66666</ele>
        <time>2011-08-20T07:46:04Z</time>
      </trkpt>
      <trkpt lat="45.43835" lon="6.2917">
        <ele>496.66666</ele>
        <time>2011-08-20T07:46:27Z</time>
      </trkpt>
      <trkpt lat="45.43849" lon="6.29197">
        <ele>498.66666</ele>
        <time>2011-08-20T07:46:30Z</time>
      </trkpt>
      <trkpt lat="45.43865" lon="6.29219">
        <ele>500</ele>
        <time>2011-08-20T07:46:34Z</time>
      </trkpt>
      <trkpt lat="45.43878" lon="6.29246">
        <ele>501.33334</ele>
        <time>2011-08-20T07:46:43Z</time>
      </trkpt>
      <trkpt lat="45.43884" lon="6.2927">
        <ele>503.66666</ele>
        <time>2011-08-20T07:46:56Z</time>
      </trkpt>
      <trkpt lat="45.43896" lon="6.2929">
        <ele>506</ele>
        <time>2011-08-20T07:47:27Z</time>
      </trkpt>
      <trkpt lat="45.43916" lon="6.29304">
        <ele>507.66666</ele>
        <time>2011-08-20T07:47:36Z</time>
      </trkpt>
      <trkpt lat="45.43931" lon="6.2932">
        <ele>508.66666</ele>
        <time>2011-08-20T07:47:41Z</time>
      </trkpt>
      <trkpt lat="45.43941" lon="6.29344">
        <ele>510.66666</ele>
        <time>2011-08-20T07:47:49Z</time>
      </trkpt>
      <trkpt lat="45.43949" lon="6.29367">
        <ele>513.3333</ele>
        <time>2011-08-20T07:47:57Z</time>
      </trkpt>
      <trkpt lat="45.43956" lon="6.29393">
        <ele>515.6667</ele>
        <time>2011-08-20T07:48:08Z</time>
      </trkpt>
      <trkpt lat="45.43967" lon="6.29415">
        <ele>518.3333</ele>
        <time>2011-08-20T07:48:20Z</time>
      </trkpt>
      <trkpt lat="45.4398" lon="6.29434">
        <ele>520.6667</ele>
        <time>2011-08-20T07:48:28Z</time>
      </trkpt>
      <trkpt lat="45.43996" lon="6.29451">
        <ele>523.3333</ele>
        <time>2011-08-20T07:48:35Z</time>
      </trkpt>
      <trkpt lat="45.44011" lon="6.29467">
        <ele>525.3333</ele>
        <time>2011-08-20T07:48:43Z</time>
      </trkpt>
      <trkpt lat="45.44017" lon="6.29492">
        <ele>527</ele>
        <time>2011-08-20T07:48:57Z</time>
      </trkpt>
      <trkpt lat="45.44023" lon="6.29517">
        <ele>528.3333</ele>
        <time>2011-08-20T07:49:11Z</time>
      </trkpt>
      <trkpt lat="45.44034" lon="6.29536">
        <ele>529.6667</ele>
        <time>2011-08-20T07:49:25Z</time>
      </trkpt>
      <trkpt lat="45.4405" lon="6.29554">
        <ele>531.3333</ele>
        <time>2011-08-20T07:49:33Z</time>
      </trkpt>
      <trkpt lat="45.44061" lon="6.29576">
        <ele>535.3333</ele>
        <time>2011-08-20T07:49:55Z</time>
      </trkpt>
      <trkpt lat="45.44078" lon="6.29585">
        <ele>538.3333</ele>
        <time>2011-08-20T07:49:59Z</time>
      </trkpt>
      <trkpt lat="45.44101" lon="6.29595">
        <ele>541.6667</ele>
        <time>2011-08-20T07:50:04Z</time>
      </trkpt>
      <trkpt lat="45.44128" lon="6.29605">
        <ele>545</ele>
        <time>2011-08-20T07:50:11Z</time>
      </trkpt>
      <trkpt lat="45.44107" lon="6.29617">
        <ele>551.3333</ele>
        <time>2011-08-20T07:50:37Z</time>
      </trkpt>
      <trkpt lat="45.44086" lon="6.29622">
        <ele>558.6667</ele>
        <time>2011-08-20T07:50:50Z</time>
      </trkpt>
      <trkpt lat="45.44068" lon="6.29623">
        <ele>563.6667</ele>
        <time>2011-08-20T07:50:59Z</time>
      </trkpt>
      <trkpt lat="45.4405" lon="6.29614">
        <ele>566</ele>
        <time>2011-08-20T07:51:10Z</time>
      </trkpt>
      <trkpt lat="45.44028" lon="6.29608">
        <ele>566.6667</ele>
        <time>2011-08-20T07:51:20Z</time>
      </trkpt>
      <trkpt lat="45.44014" lon="6.29586">
        <ele>567</ele>
        <time>2011-08-20T07:51:29Z</time>
      </trkpt>
      <trkpt lat="45.43998" lon="6.29572">
        <ele>566.3333</ele>
        <time>2011-08-20T07:51:36Z</time>
      </trkpt>
      <trkpt lat="45.44003" lon="6.29599">
        <ele>566</ele>
        <time>2011-08-20T07:52:08Z</time>
      </trkpt>
      <trkpt lat="45.44015" lon="6.29621">
        <ele>566</ele>
        <time>2011-08-20T07:52:21Z</time>
      </trkpt>
      <trkpt lat="45.44031" lon="6.29637">
        <ele>569.6667</ele>
        <time>2011-08-20T07:52:55Z</time>
      </trkpt>
      <trkpt lat="45.44048" lon="6.29647">
        <ele>574</ele>
        <time>2011-08-20T07:53:02Z</time>
      </trkpt>
      <trkpt lat="45.44068" lon="6.29651">
        <ele>577.6667</ele>
        <time>2011-08-20T07:53:10Z</time>
      </trkpt>
      <trkpt lat="45.44089" lon="6.29659">
        <ele>577.6667</ele>
        <time>2011-08-20T07:53:17Z</time>
      </trkpt>
      <trkpt lat="45.44106" lon="6.29665">
        <ele>580</ele>
        <time>2011-08-20T07:53:29Z</time>
      </trkpt>
      <trkpt lat="45.4409" lon="6.2968">
        <ele>583.3333</ele>
        <time>2011-08-20T07:55:31Z</time>
      </trkpt>
      <trkpt lat="45.44073" lon="6.2969">
        <ele>588</ele>
        <time>2011-08-20T07:55:41Z</time>
      </trkpt>
      <trkpt lat="45.44053" lon="6.29686">
        <ele>591</ele>
        <time>2011-08-20T07:55:59Z</time>
      </trkpt>
      <trkpt lat="45.44035" lon="6.29676">
        <ele>594.3333</ele>
        <time>2011-08-20T07:56:07Z</time>
      </trkpt>
      <trkpt lat="45.44016" lon="6.29669">
        <ele>597.6667</ele>
        <time>2011-08-20T07:56:15Z</time>
      </trkpt>
      <trkpt lat="45.43999" lon="6.29657">
        <ele>599.3333</ele>
        <time>2011-08-20T07:56:23Z</time>
      </trkpt>
      <trkpt lat="45.43989" lon="6.29633">
        <ele>600.3333</ele>
        <time>2011-08-20T07:56:33Z</time>
      </trkpt>
      <trkpt lat="45.43972" lon="6.29617">
        <ele>600.3333</ele>
        <time>2011-08-20T07:56:41Z</time>
      </trkpt>
      <trkpt lat="45.43954" lon="6.29605">
        <ele>601</ele>
        <time>2011-08-20T07:56:49Z</time>
      </trkpt>
      <trkpt lat="45.43939" lon="6.2959">
        <ele>601.6667</ele>
        <time>2011-08-20T07:57:08Z</time>
      </trkpt>
      <trkpt lat="45.4392" lon="6.2957">
        <ele>603.3333</ele>
        <time>2011-08-20T07:57:20Z</time>
      </trkpt>
      <trkpt lat="45.43901" lon="6.29557">
        <ele>605</ele>
        <time>2011-08-20T07:57:28Z</time>
      </trkpt>
      <trkpt lat="45.43885" lon="6.29536">
        <ele>607.3333</ele>
        <time>2011-08-20T07:57:38Z</time>
      </trkpt>
      <trkpt lat="45.43868" lon="6.29513">
        <ele>610</ele>
        <time>2011-08-20T07:57:46Z</time>
      </trkpt>
      <trkpt lat="45.43849" lon="6.29506">
        <ele>613</ele>
        <time>2011-08-20T07:57:57Z</time>
      </trkpt>
      <trkpt lat="45.4383" lon="6.29495">
        <ele>615</ele>
        <time>2011-08-20T07:58:19Z</time>
      </trkpt>
      <trkpt lat="45.43815" lon="6.29476">
        <ele>617</ele>
        <time>2011-08-20T07:58:23Z</time>
      </trkpt>
      <trkpt lat="45.43799" lon="6.29459">
        <ele>619.6667</ele>
        <time>2011-08-20T07:58:31Z</time>
      </trkpt>
      <trkpt lat="45.43787" lon="6.29437">
        <ele>623.3333</ele>
        <time>2011-08-20T07:58:47Z</time>
      </trkpt>
      <trkpt lat="45.43769" lon="6.29421">
        <ele>625.6667</ele>
        <time>2011-08-20T07:59:00Z</time>
      </trkpt>
      <trkpt lat="45.43751" lon="6.29415">
        <ele>628</ele>
        <time>2011-08-20T07:59:13Z</time>
      </trkpt>
      <trkpt lat="45.43734" lon="6.29403">
        <ele>629</ele>
        <time>2011-08-20T07:59:24Z</time>
      </trkpt>
      <trkpt lat="45.43722" lon="6.29384">
        <ele>629.6667</ele>
        <time>2011-08-20T07:59:35Z</time>
      </trkpt>
      <trkpt lat="45.43708" lon="6.29364">
        <ele>629.6667</ele>
        <time>2011-08-20T07:59:45Z</time>
      </trkpt>
      <trkpt lat="45.4369" lon="6.29354">
        <ele>629.6667</ele>
        <time>2011-08-20T07:59:54Z</time>
      </trkpt>
      <trkpt lat="45.4367" lon="6.29354">
        <ele>631</ele>
        <time>2011-08-20T08:00:02Z</time>
      </trkpt>
      <trkpt lat="45.43656" lon="6.29334">
        <ele>632</ele>
        <time>2011-08-20T08:00:14Z</time>
      </trkpt>
      <trkpt lat="45.43643" lon="6.29311">
        <ele>633.6667</ele>
        <time>2011-08-20T08:00:19Z</time>
      </trkpt>
      <trkpt lat="45.43631" lon="6.29292">
        <ele>635</ele>
        <time>2011-08-20T08:00:24Z</time>
      </trkpt>
      <trkpt lat="45.4361" lon="6.29277">
        <ele>636.3333</ele>
        <time>2011-08-20T08:00:36Z</time>
      </trkpt>
      <trkpt lat="45.43591" lon="6.29276">
        <ele>637.6667</ele>
        <time>2011-08-20T08:00:44Z</time>
      </trkpt>
      <trkpt lat="45.43574" lon="6.29263">
        <ele>638.6667</ele>
        <time>2011-08-20T08:00:57Z</time>
      </trkpt>
      <trkpt lat="45.43554" lon="6.29263">
        <ele>639</ele>
        <time>2011-08-20T08:01:08Z</time>
      </trkpt>
      <trkpt lat="45.43535" lon="6.29254">
        <ele>640</ele>
        <time>2011-08-20T08:01:16Z</time>
      </trkpt>
      <trkpt lat="45.43511" lon="6.2924">
        <ele>642.6667</ele>
        <time>2011-08-20T08:01:28Z</time>
      </trkpt>
      <trkpt lat="45.43494" lon="6.2923">
        <ele>645.6667</ele>
        <time>2011-08-20T08:01:35Z</time>
      </trkpt>
      <trkpt lat="45.43469" lon="6.29229">
        <ele>647</ele>
        <time>2011-08-20T08:02:01Z</time>
      </trkpt>
      <trkpt lat="45.43449" lon="6.29229">
        <ele>647.6667</ele>
        <time>2011-08-20T08:02:08Z</time>
      </trkpt>
      <trkpt lat="45.43431" lon="6.29223">
        <ele>648.3333</ele>
        <time>2011-08-20T08:02:24Z</time>
      </trkpt>
      <trkpt lat="45.43413" lon="6.29217">
        <ele>650</ele>
        <time>2011-08-20T08:02:30Z</time>
      </trkpt>
      <trkpt lat="45.43393" lon="6.29211">
        <ele>651</ele>
        <time>2011-08-20T08:02:38Z</time>
      </trkpt>
      <trkpt lat="45.43375" lon="6.29201">
        <ele>652.6667</ele>
        <time>2011-08-20T08:02:43Z</time>
      </trkpt>
      <trkpt lat="45.43355" lon="6.29205">
        <ele>653.6667</ele>
        <time>2011-08-20T08:02:50Z</time>
      </trkpt>
      <trkpt lat="45.43373" lon="6.29214">
        <ele>653.6667</ele>
        <time>2011-08-20T08:03:05Z</time>
      </trkpt>
      <trkpt lat="45.43392" lon="6.2922">
        <ele>654</ele>
        <time>2011-08-20T08:03:17Z</time>
      </trkpt>
      <trkpt lat="45.43413" lon="6.29234">
        <ele>657</ele>
        <time>2011-08-20T08:03:38Z</time>
      </trkpt>
      <trkpt lat="45.43431" lon="6.29244">
        <ele>661.6667</ele>
        <time>2011-08-20T08:03:47Z</time>
      </trkpt>
      <trkpt lat="45.4345" lon="6.29255">
        <ele>667</ele>
        <time>2011-08-20T08:04:05Z</time>
      </trkpt>
      <trkpt lat="45.43467" lon="6.29267">
        <ele>673.6667</ele>
        <time>2011-08-20T08:04:14Z</time>
      </trkpt>
      <trkpt lat="45.43484" lon="6.29281">
        <ele>683.6667</ele>
        <time>2011-08-20T08:04:30Z</time>
      </trkpt>
      <trkpt lat="45.43503" lon="6.29295">
        <ele>694.3333</ele>
        <time>2011-08-20T08:04:43Z</time>
      </trkpt>
      <trkpt lat="45.43519" lon="6.29308">
        <ele>702.3333</ele>
        <time>2011-08-20T08:04:56Z</time>
      </trkpt>
      <trkpt lat="45.43535" lon="6.29328">
        <ele>706.6667</ele>
        <time>2011-08-20T08:05:09Z</time>
      </trkpt>
      <trkpt lat="45.4355" lon="6.2935">
        <ele>709</ele>
        <time>2011-08-20T08:05:22Z</time>
      </trkpt>
      <trkpt lat="45.43563" lon="6.29379">
        <ele>709</ele>
        <time>2011-08-20T08:05:29Z</time>
      </trkpt>
      <trkpt lat="45.43575" lon="6.294">
        <ele>708.3333</ele>
        <time>2011-08-20T08:05:36Z</time>
      </trkpt>
      <trkpt lat="45.43589" lon="6.29423">
        <ele>707.6667</ele>
        <time>2011-08-20T08:05:48Z</time>
      </trkpt>
      <trkpt lat="45.43607" lon="6.29443">
        <ele>708.6667</ele>
        <time>2011-08-20T08:06:02Z</time>
      </trkpt>
      <trkpt lat="45.43625" lon="6.29454">
        <ele>711.6667</ele>
        <time>2011-08-20T08:06:07Z</time>
      </trkpt>
      <trkpt lat="45.43635" lon="6.29476">
        <ele>715</ele>
        <time>2011-08-20T08:06:22Z</time>
      </trkpt>
      <trkpt lat="45.43641" lon="6.29501">
        <ele>716.6667</ele>
        <time>2011-08-20T08:06:33Z</time>
      </trkpt>
      <trkpt lat="45.43648" lon="6.29527">
        <ele>716.3333</ele>
        <time>2011-08-20T08:06:57Z</time>
      </trkpt>
      <trkpt lat="45.43651" lon="6.29553">
        <ele>714.6667</ele>
        <time>2011-08-20T08:07:10Z</time>
      </trkpt>
      <trkpt lat="45.43666" lon="6.29569">
        <ele>716.6667</ele>
        <time>2011-08-20T08:07:20Z</time>
      </trkpt>
      <trkpt lat="45.43685" lon="6.29586">
        <ele>720</ele>
        <time>2011-08-20T08:07:37Z</time>
      </trkpt>
      <trkpt lat="45.437" lon="6.29601">
        <ele>722.6667</ele>
        <time>2011-08-20T08:07:41Z</time>
      </trkpt>
      <trkpt lat="45.43718" lon="6.29614">
        <ele>723</ele>
        <time>2011-08-20T08:07:46Z</time>
      </trkpt>
      <trkpt lat="45.43736" lon="6.29622">
        <ele>723.6667</ele>
        <time>2011-08-20T08:07:52Z</time>
      </trkpt>
      <trkpt lat="45.43748" lon="6.29642">
        <ele>724.6667</ele>
        <time>2011-08-20T08:08:02Z</time>
      </trkpt>
      <trkpt lat="45.43748" lon="6.2967">
        <ele>726.3333</ele>
        <time>2011-08-20T08:08:16Z</time>
      </trkpt>
      <trkpt lat="45.43746" lon="6.29697">
        <ele>727</ele>
        <time>2011-08-20T08:08:33Z</time>
      </trkpt>
      <trkpt lat="45.43747" lon="6.29723">
        <ele>728</ele>
        <time>2011-08-20T08:08:41Z</time>
      </trkpt>
      <trkpt lat="45.43748" lon="6.29749">
        <ele>728.3333</ele>
        <time>2011-08-20T08:08:51Z</time>
      </trkpt>
      <trkpt lat="45.43758" lon="6.29773">
        <ele>729</ele>
        <time>2011-08-20T08:09:05Z</time>
      </trkpt>
      <trkpt lat="45.43769" lon="6.29799">
        <ele>730</ele>
        <time>2011-08-20T08:09:12Z</time>
      </trkpt>
      <trkpt lat="45.4379" lon="6.29828">
        <ele>736</ele>
        <time>2011-08-20T08:09:45Z</time>
      </trkpt>
      <trkpt lat="45.43809" lon="6.29845">
        <ele>742.6667</ele>
        <time>2011-08-20T08:09:47Z</time>
      </trkpt>
      <trkpt lat="45.43828" lon="6.29859">
        <ele>750</ele>
        <time>2011-08-20T08:09:55Z</time>
      </trkpt>
      <trkpt lat="45.43847" lon="6.29865">
        <ele>754.3333</ele>
        <time>2011-08-20T08:10:10Z</time>
      </trkpt>
      <trkpt lat="45.43859" lon="6.29887">
        <ele>754</ele>
        <time>2011-08-20T08:10:15Z</time>
      </trkpt>
      <trkpt lat="45.43878" lon="6.29892">
        <ele>753</ele>
        <time>2011-08-20T08:10:24Z</time>
      </trkpt>
      <trkpt lat="45.43877" lon="6.29917">
        <ele>750.6667</ele>
        <time>2011-08-20T08:10:44Z</time>
      </trkpt>
      <trkpt lat="45.43892" lon="6.2994">
        <ele>753.3333</ele>
        <time>2011-08-20T08:11:16Z</time>
      </trkpt>
      <trkpt lat="45.43907" lon="6.29956">
        <ele>757.3333</ele>
        <time>2011-08-20T08:11:19Z</time>
      </trkpt>
      <trkpt lat="45.43924" lon="6.29969">
        <ele>763.3333</ele>
        <time>2011-08-20T08:11:22Z</time>
      </trkpt>
      <trkpt lat="45.43939" lon="6.29985">
        <ele>768.3333</ele>
        <time>2011-08-20T08:11:29Z</time>
      </trkpt>
      <trkpt lat="45.43921" lon="6.29985">
        <ele>775</ele>
        <time>2011-08-20T08:12:31Z</time>
      </trkpt>
      <trkpt lat="45.43904" lon="6.29972">
        <ele>780.3333</ele>
        <time>2011-08-20T08:12:45Z</time>
      </trkpt>
      <trkpt lat="45.43886" lon="6.29965">
        <ele>783</ele>
        <time>2011-08-20T08:13:00Z</time>
      </trkpt>
      <trkpt lat="45.43868" lon="6.29961">
        <ele>780.3333</ele>
        <time>2011-08-20T08:13:07Z</time>
      </trkpt>
      <trkpt lat="45.43848" lon="6.29953">
        <ele>776</ele>
        <time>2011-08-20T08:13:18Z</time>
      </trkpt>
      <trkpt lat="45.43829" lon="6.29945">
        <ele>774.6667</ele>
        <time>2011-08-20T08:13:27Z</time>
      </trkpt>
      <trkpt lat="45.43811" lon="6.29943">
        <ele>777.6667</ele>
        <time>2011-08-20T08:13:36Z</time>
      </trkpt>
      <trkpt lat="45.43789" lon="6.29934">
        <ele>785</ele>
        <time>2011-08-20T08:13:49Z</time>
      </trkpt>
      <trkpt lat="45.43773" lon="6.29917">
        <ele>792.3333</ele>
        <time>2011-08-20T08:14:21Z</time>
      </trkpt>
      <trkpt lat="45.43756" lon="6.29902">
        <ele>797.3333</ele>
        <time>2011-08-20T08:14:35Z</time>
      </trkpt>
      <trkpt lat="45.43742" lon="6.29884">
        <ele>798.3333</ele>
        <time>2011-08-20T08:14:41Z</time>
      </trkpt>
      <trkpt lat="45.4373" lon="6.29865">
        <ele>798.6667</ele>
        <time>2011-08-20T08:14:49Z</time>
      </trkpt>
      <trkpt lat="45.43717" lon="6.29846">
        <ele>801</ele>
        <time>2011-08-20T08:15:00Z</time>
      </trkpt>
      <trkpt lat="45.43702" lon="6.29829">
        <ele>803.6667</ele>
        <time>2011-08-20T08:15:11Z</time>
      </trkpt>
      <trkpt lat="45.43687" lon="6.29812">
        <ele>806</ele>
        <time>2011-08-20T08:15:22Z</time>
      </trkpt>
      <trkpt lat="45.43683" lon="6.29786">
        <ele>805</ele>
        <time>2011-08-20T08:15:29Z</time>
      </trkpt>
      <trkpt lat="45.43665" lon="6.29777">
        <ele>797.6667</ele>
        <time>2011-08-20T08:15:46Z</time>
      </trkpt>
      <trkpt lat="45.43653" lon="6.29757">
        <ele>793.3333</ele>
        <time>2011-08-20T08:18:42Z</time>
      </trkpt>
      <trkpt lat="45.43663" lon="6.29779">
        <ele>787.3333</ele>
        <time>2011-08-20T08:20:59Z</time>
      </trkpt>
      <trkpt lat="45.4364" lon="6.29786">
        <ele>784.6667</ele>
        <time>2011-08-20T08:31:23Z</time>
      </trkpt>
      <trkpt lat="45.43622" lon="6.29792">
        <ele>778.6667</ele>
        <time>2011-08-20T08:31:33Z</time>
      </trkpt>
      <trkpt lat="45.4361" lon="6.29769">
        <ele>777.3333</ele>
        <time>2011-08-20T08:32:04Z</time>
      </trkpt>
      <trkpt lat="45.43601" lon="6.29745">
        <ele>779.3333</ele>
        <time>2011-08-20T08:32:08Z</time>
      </trkpt>
      <trkpt lat="45.43593" lon="6.29721">
        <ele>783</ele>
        <time>2011-08-20T08:32:12Z</time>
      </trkpt>
      <trkpt lat="45.43586" lon="6.29746">
        <ele>785.6667</ele>
        <time>2011-08-20T08:32:38Z</time>
      </trkpt>
      <trkpt lat="45.43588" lon="6.29777">
        <ele>789.6667</ele>
        <time>2011-08-20T08:32:54Z</time>
      </trkpt>
      <trkpt lat="45.436" lon="6.29799">
        <ele>793.3333</ele>
        <time>2011-08-20T08:33:03Z</time>
      </trkpt>
      <trkpt lat="45.4362" lon="6.29811">
        <ele>797.6667</ele>
        <time>2011-08-20T08:33:14Z</time>
      </trkpt>
      <trkpt lat="45.43634" lon="6.2983">
        <ele>800</ele>
        <time>2011-08-20T08:33:22Z</time>
      </trkpt>
      <trkpt lat="45.43644" lon="6.29856">
        <ele>801</ele>
        <time>2011-08-20T08:33:34Z</time>
      </trkpt>
      <trkpt lat="45.43656" lon="6.2988">
        <ele>801.3333</ele>
        <time>2011-08-20T08:33:41Z</time>
      </trkpt>
      <trkpt lat="45.43665" lon="6.29903">
        <ele>801.6667</ele>
        <time>2011-08-20T08:33:52Z</time>
      </trkpt>
      <trkpt lat="45.43675" lon="6.29926">
        <ele>802.6667</ele>
        <time>2011-08-20T08:34:02Z</time>
      </trkpt>
      <trkpt lat="45.43689" lon="6.29942">
        <ele>804.3333</ele>
        <time>2011-08-20T08:34:12Z</time>
      </trkpt>
      <trkpt lat="45.43707" lon="6.29965">
        <ele>806.6667</ele>
        <time>2011-08-20T08:34:25Z</time>
      </trkpt>
      <trkpt lat="45.43715" lon="6.29988">
        <ele>808</ele>
        <time>2011-08-20T08:34:35Z</time>
      </trkpt>
      <trkpt lat="45.43723" lon="6.30014">
        <ele>807.6667</ele>
        <time>2011-08-20T08:34:47Z</time>
      </trkpt>
      <trkpt lat="45.43737" lon="6.30033">
        <ele>807.3333</ele>
        <time>2011-08-20T08:34:56Z</time>
      </trkpt>
      <trkpt lat="45.43746" lon="6.30057">
        <ele>808</ele>
        <time>2011-08-20T08:35:04Z</time>
      </trkpt>
      <trkpt lat="45.43721" lon="6.30042">
        <ele>810.6667</ele>
        <time>2011-08-20T08:35:43Z</time>
      </trkpt>
      <trkpt lat="45.43709" lon="6.30019">
        <ele>812.6667</ele>
        <time>2011-08-20T08:35:49Z</time>
      </trkpt>
      <trkpt lat="45.43695" lon="6.29998">
        <ele>815</ele>
        <time>2011-08-20T08:35:56Z</time>
      </trkpt>
      <trkpt lat="45.4368" lon="6.29982">
        <ele>816.6667</ele>
        <time>2011-08-20T08:36:02Z</time>
      </trkpt>
      <trkpt lat="45.43664" lon="6.29966">
        <ele>818.6667</ele>
        <time>2011-08-20T08:36:09Z</time>
      </trkpt>
      <trkpt lat="45.43649" lon="6.29949">
        <ele>820.3333</ele>
        <time>2011-08-20T08:36:18Z</time>
      </trkpt>
      <trkpt lat="45.43631" lon="6.29938">
        <ele>821.3333</ele>
        <time>2011-08-20T08:36:31Z</time>
      </trkpt>
      <trkpt lat="45.43616" lon="6.29925">
        <ele>822.3333</ele>
        <time>2011-08-20T08:36:42Z</time>
      </trkpt>
      <trkpt lat="45.43601" lon="6.2991">
        <ele>822.6667</ele>
        <time>2011-08-20T08:36:53Z</time>
      </trkpt>
      <trkpt lat="45.43585" lon="6.29896">
        <ele>824</ele>
        <time>2011-08-20T08:37:02Z</time>
      </trkpt>
      <trkpt lat="45.43567" lon="6.29882">
        <ele>825.6667</ele>
        <time>2011-08-20T08:37:14Z</time>
      </trkpt>
      <trkpt lat="45.43552" lon="6.2986">
        <ele>827</ele>
        <time>2011-08-20T08:37:44Z</time>
      </trkpt>
      <trkpt lat="45.43541" lon="6.29839">
        <ele>827.6667</ele>
        <time>2011-08-20T08:37:48Z</time>
      </trkpt>
      <trkpt lat="45.43529" lon="6.2982">
        <ele>828.3333</ele>
        <time>2011-08-20T08:37:54Z</time>
      </trkpt>
      <trkpt lat="45.43515" lon="6.29793">
        <ele>829.6667</ele>
        <time>2011-08-20T08:38:21Z</time>
      </trkpt>
      <trkpt lat="45.43505" lon="6.2977">
        <ele>831.3333</ele>
        <time>2011-08-20T08:38:25Z</time>
      </trkpt>
      <trkpt lat="45.43495" lon="6.29745">
        <ele>833</ele>
        <time>2011-08-20T08:38:30Z</time>
      </trkpt>
      <trkpt lat="45.43483" lon="6.29724">
        <ele>835.3333</ele>
        <time>2011-08-20T08:38:35Z</time>
      </trkpt>
      <trkpt lat="45.43467" lon="6.29703">
        <ele>837.6667</ele>
        <time>2011-08-20T08:38:46Z</time>
      </trkpt>
      <trkpt lat="45.43454" lon="6.29681">
        <ele>840.3333</ele>
        <time>2011-08-20T08:39:00Z</time>
      </trkpt>
      <trkpt lat="45.43442" lon="6.29661">
        <ele>842.3333</ele>
        <time>2011-08-20T08:39:14Z</time>
      </trkpt>
      <trkpt lat="45.43431" lon="6.2964">
        <ele>844.3333</ele>
        <time>2011-08-20T08:39:34Z</time>
      </trkpt>
      <trkpt lat="45.43419" lon="6.29615">
        <ele>847.3333</ele>
        <time>2011-08-20T08:39:38Z</time>
      </trkpt>
      <trkpt lat="45.43408" lon="6.29593">
        <ele>851.6667</ele>
        <time>2011-08-20T08:39:48Z</time>
      </trkpt>
      <trkpt lat="45.43391" lon="6.29578">
        <ele>855.3333</ele>
        <time>2011-08-20T08:40:01Z</time>
      </trkpt>
      <trkpt lat="45.43372" lon="6.29564">
        <ele>856.6667</ele>
        <time>2011-08-20T08:40:11Z</time>
      </trkpt>
      <trkpt lat="45.43352" lon="6.29563">
        <ele>857.3333</ele>
        <time>2011-08-20T08:40:20Z</time>
      </trkpt>
      <trkpt lat="45.43338" lon="6.29579">
        <ele>859.6667</ele>
        <time>2011-08-20T08:40:30Z</time>
      </trkpt>
      <trkpt lat="45.43318" lon="6.29591">
        <ele>863.6667</ele>
        <time>2011-08-20T08:40:43Z</time>
      </trkpt>
      <trkpt lat="45.43299" lon="6.29597">
        <ele>867.6667</ele>
        <time>2011-08-20T08:40:57Z</time>
      </trkpt>
      <trkpt lat="45.43283" lon="6.29586">
        <ele>871</ele>
        <time>2011-08-20T08:41:11Z</time>
      </trkpt>
      <trkpt lat="45.43265" lon="6.29573">
        <ele>873.3333</ele>
        <time>2011-08-20T08:41:22Z</time>
      </trkpt>
      <trkpt lat="45.43242" lon="6.29557">
        <ele>874.3333</ele>
        <time>2011-08-20T08:41:35Z</time>
      </trkpt>
      <trkpt lat="45.43223" lon="6.29546">
        <ele>874.3333</ele>
        <time>2011-08-20T08:41:43Z</time>
      </trkpt>
      <trkpt lat="45.43204" lon="6.2954">
        <ele>874</ele>
        <time>2011-08-20T08:41:52Z</time>
      </trkpt>
      <trkpt lat="45.43218" lon="6.29557">
        <ele>875.6667</ele>
        <time>2011-08-20T08:42:14Z</time>
      </trkpt>
      <trkpt lat="45.43237" lon="6.29558">
        <ele>879</ele>
        <time>2011-08-20T08:42:27Z</time>
      </trkpt>
      <trkpt lat="45.43257" lon="6.29573">
        <ele>883.3333</ele>
        <time>2011-08-20T08:42:40Z</time>
      </trkpt>
      <trkpt lat="45.43269" lon="6.29594">
        <ele>886.3333</ele>
        <time>2011-08-20T08:42:53Z</time>
      </trkpt>
      <trkpt lat="45.43283" lon="6.29613">
        <ele>888</ele>
        <time>2011-08-20T08:43:03Z</time>
      </trkpt>
      <trkpt lat="45.43299" lon="6.29625">
        <ele>889.3333</ele>
        <time>2011-08-20T08:43:11Z</time>
      </trkpt>
      <trkpt lat="45.43319" lon="6.29625">
        <ele>891.6667</ele>
        <time>2011-08-20T08:43:23Z</time>
      </trkpt>
      <trkpt lat="45.43335" lon="6.29615">
        <ele>894.3333</ele>
        <time>2011-08-20T08:43:34Z</time>
      </trkpt>
      <trkpt lat="45.43351" lon="6.29629">
        <ele>897</ele>
        <time>2011-08-20T08:43:45Z</time>
      </trkpt>
      <trkpt lat="45.43365" lon="6.29647">
        <ele>899.3333</ele>
        <time>2011-08-20T08:43:59Z</time>
      </trkpt>
      <trkpt lat="45.43378" lon="6.29673">
        <ele>900.6667</ele>
        <time>2011-08-20T08:44:11Z</time>
      </trkpt>
      <trkpt lat="45.43387" lon="6.297">
        <ele>902.6667</ele>
        <time>2011-08-20T08:44:31Z</time>
      </trkpt>
      <trkpt lat="45.43394" lon="6.29731">
        <ele>903</ele>
        <time>2011-08-20T08:44:37Z</time>
      </trkpt>
      <trkpt lat="45.43404" lon="6.29754">
        <ele>903.3333</ele>
        <time>2011-08-20T08:44:46Z</time>
      </trkpt>
      <trkpt lat="45.43409" lon="6.2978">
        <ele>904.3333</ele>
        <time>2011-08-20T08:45:00Z</time>
      </trkpt>
      <trkpt lat="45.43421" lon="6.29801">
        <ele>906.6667</ele>
        <time>2011-08-20T08:45:11Z</time>
      </trkpt>
      <trkpt lat="45.43428" lon="6.29827">
        <ele>909.3333</ele>
        <time>2011-08-20T08:45:20Z</time>
      </trkpt>
      <trkpt lat="45.43438" lon="6.29851">
        <ele>910.3333</ele>
        <time>2011-08-20T08:45:32Z</time>
      </trkpt>
      <trkpt lat="45.43448" lon="6.29874">
        <ele>911</ele>
        <time>2011-08-20T08:45:43Z</time>
      </trkpt>
      <trkpt lat="45.43458" lon="6.29896">
        <ele>912.6667</ele>
        <time>2011-08-20T08:45:56Z</time>
      </trkpt>
      <trkpt lat="45.43471" lon="6.29919">
        <ele>914.6667</ele>
        <time>2011-08-20T08:46:08Z</time>
      </trkpt>
      <trkpt lat="45.43481" lon="6.29941">
        <ele>916.3333</ele>
        <time>2011-08-20T08:50:11Z</time>
      </trkpt>
      <trkpt lat="45.43489" lon="6.29964">
        <ele>918</ele>
        <time>2011-08-20T08:50:22Z</time>
      </trkpt>
      <trkpt lat="45.435" lon="6.29985">
        <ele>920.6667</ele>
        <time>2011-08-20T08:50:31Z</time>
      </trkpt>
      <trkpt lat="45.43505" lon="6.30011">
        <ele>923.3333</ele>
        <time>2011-08-20T08:50:42Z</time>
      </trkpt>
      <trkpt lat="45.43507" lon="6.30041">
        <ele>924.6667</ele>
        <time>2011-08-20T08:50:54Z</time>
      </trkpt>
      <trkpt lat="45.43525" lon="6.30058">
        <ele>925.6667</ele>
        <time>2011-08-20T08:51:07Z</time>
      </trkpt>
      <trkpt lat="45.43531" lon="6.30082">
        <ele>927.3333</ele>
        <time>2011-08-20T08:51:20Z</time>
      </trkpt>
      <trkpt lat="45.43542" lon="6.30107">
        <ele>929.6667</ele>
        <time>2011-08-20T08:51:30Z</time>
      </trkpt>
      <trkpt lat="45.43555" lon="6.30127">
        <ele>931.6667</ele>
        <time>2011-08-20T08:51:40Z</time>
      </trkpt>
      <trkpt lat="45.43573" lon="6.30133">
        <ele>933.6667</ele>
        <time>2011-08-20T08:51:51Z</time>
      </trkpt>
      <trkpt lat="45.43591" lon="6.30134">
        <ele>935.3333</ele>
        <time>2011-08-20T08:52:03Z</time>
      </trkpt>
      <trkpt lat="45.43605" lon="6.30153">
        <ele>937</ele>
        <time>2011-08-20T08:52:17Z</time>
      </trkpt>
      <trkpt lat="45.43612" lon="6.30179">
        <ele>938.3333</ele>
        <time>2011-08-20T08:52:30Z</time>
      </trkpt>
      <trkpt lat="45.43618" lon="6.30203">
        <ele>939.6667</ele>
        <time>2011-08-20T08:52:42Z</time>
      </trkpt>
      <trkpt lat="45.43625" lon="6.30228">
        <ele>940.3333</ele>
        <time>2011-08-20T08:52:51Z</time>
      </trkpt>
      <trkpt lat="45.4363" lon="6.30253">
        <ele>941</ele>
        <time>2011-08-20T08:52:59Z</time>
      </trkpt>
      <trkpt lat="45.43635" lon="6.30279">
        <ele>942</ele>
        <time>2011-08-20T08:53:08Z</time>
      </trkpt>
      <trkpt lat="45.43649" lon="6.303">
        <ele>943.6667</ele>
        <time>2011-08-20T08:53:19Z</time>
      </trkpt>
      <trkpt lat="45.43669" lon="6.30308">
        <ele>946</ele>
        <time>2011-08-20T08:53:30Z</time>
      </trkpt>
      <trkpt lat="45.43687" lon="6.30304">
        <ele>949.3333</ele>
        <time>2011-08-20T08:53:40Z</time>
      </trkpt>
      <trkpt lat="45.43706" lon="6.30301">
        <ele>953.3333</ele>
        <time>2011-08-20T08:53:52Z</time>
      </trkpt>
      <trkpt lat="45.43725" lon="6.30302">
        <ele>957.3333</ele>
        <time>2011-08-20T08:54:04Z</time>
      </trkpt>
      <trkpt lat="45.43744" lon="6.30303">
        <ele>960.3333</ele>
        <time>2011-08-20T08:54:14Z</time>
      </trkpt>
      <trkpt lat="45.43762" lon="6.3031">
        <ele>962.6667</ele>
        <time>2011-08-20T08:54:25Z</time>
      </trkpt>
      <trkpt lat="45.43776" lon="6.30326">
        <ele>964.3333</ele>
        <time>2011-08-20T08:54:38Z</time>
      </trkpt>
      <trkpt lat="45.43756" lon="6.3033">
        <ele>966</ele>
        <time>2011-08-20T08:55:01Z</time>
      </trkpt>
      <trkpt lat="45.43738" lon="6.30331">
        <ele>967.3333</ele>
        <time>2011-08-20T08:55:14Z</time>
      </trkpt>
      <trkpt lat="45.43719" lon="6.30329">
        <ele>968.3333</ele>
        <time>2011-08-20T08:55:27Z</time>
      </trkpt>
      <trkpt lat="45.43699" lon="6.30333">
        <ele>970</ele>
        <time>2011-08-20T08:55:41Z</time>
      </trkpt>
      <trkpt lat="45.43679" lon="6.3034">
        <ele>971.6667</ele>
        <time>2011-08-20T08:55:53Z</time>
      </trkpt>
      <trkpt lat="45.43663" lon="6.30353">
        <ele>973.3333</ele>
        <time>2011-08-20T08:56:03Z</time>
      </trkpt>
      <trkpt lat="45.43645" lon="6.30359">
        <ele>974</ele>
        <time>2011-08-20T08:56:14Z</time>
      </trkpt>
      <trkpt lat="45.43627" lon="6.30348">
        <ele>975.3333</ele>
        <time>2011-08-20T08:56:27Z</time>
      </trkpt>
      <trkpt lat="45.43619" lon="6.30324">
        <ele>976.6667</ele>
        <time>2011-08-20T08:56:40Z</time>
      </trkpt>
      <trkpt lat="45.43611" lon="6.30298">
        <ele>978.3333</ele>
        <time>2011-08-20T08:56:49Z</time>
      </trkpt>
      <trkpt lat="45.43596" lon="6.30279">
        <ele>979</ele>
        <time>2011-08-20T08:57:01Z</time>
      </trkpt>
      <trkpt lat="45.4358" lon="6.30265">
        <ele>979.3333</ele>
        <time>2011-08-20T08:57:14Z</time>
      </trkpt>
      <trkpt lat="45.43563" lon="6.30256">
        <ele>979.6667</ele>
        <time>2011-08-20T08:57:30Z</time>
      </trkpt>
      <trkpt lat="45.43546" lon="6.30247">
        <ele>980.6667</ele>
        <time>2011-08-20T08:57:38Z</time>
      </trkpt>
      <trkpt lat="45.43528" lon="6.30239">
        <ele>982.3333</ele>
        <time>2011-08-20T08:57:45Z</time>
      </trkpt>
      <trkpt lat="45.4351" lon="6.3023">
        <ele>983.6667</ele>
        <time>2011-08-20T08:58:00Z</time>
      </trkpt>
      <trkpt lat="45.43491" lon="6.30216">
        <ele>983.6667</ele>
        <time>2011-08-20T08:58:12Z</time>
      </trkpt>
      <trkpt lat="45.43478" lon="6.30195">
        <ele>985.3333</ele>
        <time>2011-08-20T08:58:22Z</time>
      </trkpt>
      <trkpt lat="45.43466" lon="6.30169">
        <ele>988.6667</ele>
        <time>2011-08-20T08:58:30Z</time>
      </trkpt>
      <trkpt lat="45.43451" lon="6.30153">
        <ele>994</ele>
        <time>2011-08-20T08:58:39Z</time>
      </trkpt>
      <trkpt lat="45.43436" lon="6.30137">
        <ele>997.3333</ele>
        <time>2011-08-20T08:58:57Z</time>
      </trkpt>
      <trkpt lat="45.4342" lon="6.30108">
        <ele>999.6667</ele>
        <time>2011-08-20T08:59:09Z</time>
      </trkpt>
      <trkpt lat="45.43407" lon="6.30087">
        <ele>1000</ele>
        <time>2011-08-20T08:59:19Z</time>
      </trkpt>
      <trkpt lat="45.43397" lon="6.30065">
        <ele>1001.3333</ele>
        <time>2011-08-20T08:59:28Z</time>
      </trkpt>
      <trkpt lat="45.43387" lon="6.30041">
        <ele>1003</ele>
        <time>2011-08-20T08:59:40Z</time>
      </trkpt>
      <trkpt lat="45.43374" lon="6.30024">
        <ele>1005</ele>
        <time>2011-08-20T08:59:50Z</time>
      </trkpt>
      <trkpt lat="45.43362" lon="6.30003">
        <ele>1006.6667</ele>
        <time>2011-08-20T09:00:04Z</time>
      </trkpt>
      <trkpt lat="45.4335" lon="6.29984">
        <ele>1008</ele>
        <time>2011-08-20T09:00:16Z</time>
      </trkpt>
      <trkpt lat="45.43334" lon="6.29969">
        <ele>1010</ele>
        <time>2011-08-20T09:00:28Z</time>
      </trkpt>
      <trkpt lat="45.43319" lon="6.29953">
        <ele>1011.6667</ele>
        <time>2011-08-20T09:00:40Z</time>
      </trkpt>
      <trkpt lat="45.43302" lon="6.29939">
        <ele>1013</ele>
        <time>2011-08-20T09:00:54Z</time>
      </trkpt>
      <trkpt lat="45.43287" lon="6.29922">
        <ele>1015</ele>
        <time>2011-08-20T09:01:06Z</time>
      </trkpt>
      <trkpt lat="45.43269" lon="6.29908">
        <ele>1017</ele>
        <time>2011-08-20T09:01:19Z</time>
      </trkpt>
      <trkpt lat="45.43254" lon="6.2989">
        <ele>1019.3333</ele>
        <time>2011-08-20T09:01:28Z</time>
      </trkpt>
      <trkpt lat="45.43239" lon="6.29875">
        <ele>1021.3333</ele>
        <time>2011-08-20T09:01:40Z</time>
      </trkpt>
      <trkpt lat="45.43228" lon="6.29856">
        <ele>1024.3334</ele>
        <time>2011-08-20T09:01:58Z</time>
      </trkpt>
      <trkpt lat="45.43212" lon="6.29837">
        <ele>1027</ele>
        <time>2011-08-20T09:02:13Z</time>
      </trkpt>
      <trkpt lat="45.43199" lon="6.29819">
        <ele>1029</ele>
        <time>2011-08-20T09:02:21Z</time>
      </trkpt>
      <trkpt lat="45.43186" lon="6.29801">
        <ele>1031.3334</ele>
        <time>2011-08-20T09:03:19Z</time>
      </trkpt>
      <trkpt lat="45.43169" lon="6.29789">
        <ele>1035.3334</ele>
        <time>2011-08-20T09:12:43Z</time>
      </trkpt>
      <trkpt lat="45.43151" lon="6.29782">
        <ele>1039.3334</ele>
        <time>2011-08-20T09:12:52Z</time>
      </trkpt>
      <trkpt lat="45.43164" lon="6.29801">
        <ele>1042.6666</ele>
        <time>2011-08-20T09:13:22Z</time>
      </trkpt>
      <trkpt lat="45.43177" lon="6.2982">
        <ele>1044.3334</ele>
        <time>2011-08-20T09:13:32Z</time>
      </trkpt>
      <trkpt lat="45.43187" lon="6.29842">
        <ele>1045.6666</ele>
        <time>2011-08-20T09:13:41Z</time>
      </trkpt>
      <trkpt lat="45.43199" lon="6.29868">
        <ele>1046.3334</ele>
        <time>2011-08-20T09:13:53Z</time>
      </trkpt>
      <trkpt lat="45.43211" lon="6.29888">
        <ele>1047.6666</ele>
        <time>2011-08-20T09:14:03Z</time>
      </trkpt>
      <trkpt lat="45.43224" lon="6.29906">
        <ele>1049.3334</ele>
        <time>2011-08-20T09:14:12Z</time>
      </trkpt>
      <trkpt lat="45.43238" lon="6.29922">
        <ele>1051.3334</ele>
        <time>2011-08-20T09:14:20Z</time>
      </trkpt>
      <trkpt lat="45.43251" lon="6.29946">
        <ele>1053.6666</ele>
        <time>2011-08-20T09:14:32Z</time>
      </trkpt>
      <trkpt lat="45.43266" lon="6.29962">
        <ele>1057</ele>
        <time>2011-08-20T09:14:42Z</time>
      </trkpt>
      <trkpt lat="45.43278" lon="6.29983">
        <ele>1060</ele>
        <time>2011-08-20T09:14:51Z</time>
      </trkpt>
      <trkpt lat="45.4329" lon="6.30005">
        <ele>1062.6666</ele>
        <time>2011-08-20T09:15:01Z</time>
      </trkpt>
      <trkpt lat="45.43303" lon="6.30029">
        <ele>1064.3334</ele>
        <time>2011-08-20T09:15:11Z</time>
      </trkpt>
      <trkpt lat="45.43313" lon="6.3005">
        <ele>1066.3334</ele>
        <time>2011-08-20T09:15:19Z</time>
      </trkpt>
      <trkpt lat="45.43326" lon="6.30071">
        <ele>1068.3334</ele>
        <time>2011-08-20T09:15:28Z</time>
      </trkpt>
      <trkpt lat="45.43307" lon="6.30062">
        <ele>1071.6666</ele>
        <time>2011-08-20T09:15:53Z</time>
      </trkpt>
      <trkpt lat="45.43295" lon="6.30043">
        <ele>1075</ele>
        <time>2011-08-20T09:16:03Z</time>
      </trkpt>
      <trkpt lat="45.43281" lon="6.30026">
        <ele>1078.3334</ele>
        <time>2011-08-20T09:16:12Z</time>
      </trkpt>
      <trkpt lat="45.43266" lon="6.30009">
        <ele>1080.3334</ele>
        <time>2011-08-20T09:16:22Z</time>
      </trkpt>
      <trkpt lat="45.43253" lon="6.2999">
        <ele>1082</ele>
        <time>2011-08-20T09:16:33Z</time>
      </trkpt>
      <trkpt lat="45.43238" lon="6.29975">
        <ele>1083.6666</ele>
        <time>2011-08-20T09:16:46Z</time>
      </trkpt>
      <trkpt lat="45.43222" lon="6.29959">
        <ele>1086.6666</ele>
        <time>2011-08-20T09:16:59Z</time>
      </trkpt>
      <trkpt lat="45.43206" lon="6.29947">
        <ele>1089.3334</ele>
        <time>2011-08-20T09:17:10Z</time>
      </trkpt>
      <trkpt lat="45.43189" lon="6.29932">
        <ele>1092</ele>
        <time>2011-08-20T09:17:21Z</time>
      </trkpt>
      <trkpt lat="45.43173" lon="6.29921">
        <ele>1093.6666</ele>
        <time>2011-08-20T09:17:31Z</time>
      </trkpt>
      <trkpt lat="45.43156" lon="6.29909">
        <ele>1095.3334</ele>
        <time>2011-08-20T09:17:41Z</time>
      </trkpt>
      <trkpt lat="45.43139" lon="6.29896">
        <ele>1096</ele>
        <time>2011-08-20T09:17:52Z</time>
      </trkpt>
      <trkpt lat="45.4312" lon="6.29887">
        <ele>1095.6666</ele>
        <time>2011-08-20T09:18:03Z</time>
      </trkpt>
      <trkpt lat="45.43103" lon="6.29876">
        <ele>1095.3334</ele>
        <time>2011-08-20T09:18:14Z</time>
      </trkpt>
      <trkpt lat="45.43088" lon="6.2986">
        <ele>1096.6666</ele>
        <time>2011-08-20T09:20:15Z</time>
      </trkpt>
      <trkpt lat="45.43073" lon="6.29847">
        <ele>1099</ele>
        <time>2011-08-20T09:20:27Z</time>
      </trkpt>
      <trkpt lat="45.43053" lon="6.29843">
        <ele>1100.3334</ele>
        <time>2011-08-20T09:20:38Z</time>
      </trkpt>
      <trkpt lat="45.43032" lon="6.29843">
        <ele>1101</ele>
        <time>2011-08-20T09:20:49Z</time>
      </trkpt>
      <trkpt lat="45.43014" lon="6.29841">
        <ele>1101.6666</ele>
        <time>2011-08-20T09:21:03Z</time>
      </trkpt>
      <trkpt lat="45.42994" lon="6.29844">
        <ele>1103.3334</ele>
        <time>2011-08-20T09:21:15Z</time>
      </trkpt>
      <trkpt lat="45.42974" lon="6.2984">
        <ele>1104.3334</ele>
        <time>2011-08-20T09:21:28Z</time>
      </trkpt>
      <trkpt lat="45.42961" lon="6.29822">
        <ele>1107.3334</ele>
        <time>2011-08-20T09:21:38Z</time>
      </trkpt>
      <trkpt lat="45.42945" lon="6.29811">
        <ele>1110.6666</ele>
        <time>2011-08-20T09:21:48Z</time>
      </trkpt>
      <trkpt lat="45.42953" lon="6.29835">
        <ele>1115.3334</ele>
        <time>2011-08-20T09:22:09Z</time>
      </trkpt>
      <trkpt lat="45.42971" lon="6.29848">
        <ele>1118.6666</ele>
        <time>2011-08-20T09:22:20Z</time>
      </trkpt>
      <trkpt lat="45.42989" lon="6.2986">
        <ele>1122.3334</ele>
        <time>2011-08-20T09:22:33Z</time>
      </trkpt>
      <trkpt lat="45.43009" lon="6.29864">
        <ele>1125.6666</ele>
        <time>2011-08-20T09:22:43Z</time>
      </trkpt>
      <trkpt lat="45.43025" lon="6.29879">
        <ele>1126.3334</ele>
        <time>2011-08-20T09:22:52Z</time>
      </trkpt>
      <trkpt lat="45.43043" lon="6.29881">
        <ele>1127.6666</ele>
        <time>2011-08-20T09:23:04Z</time>
      </trkpt>
      <trkpt lat="45.43062" lon="6.29886">
        <ele>1128.6666</ele>
        <time>2011-08-20T09:23:16Z</time>
      </trkpt>
      <trkpt lat="45.43079" lon="6.29897">
        <ele>1132</ele>
        <time>2011-08-20T09:23:27Z</time>
      </trkpt>
      <trkpt lat="45.43094" lon="6.29917">
        <ele>1134</ele>
        <time>2011-08-20T09:23:38Z</time>
      </trkpt>
      <trkpt lat="45.43109" lon="6.29932">
        <ele>1135</ele>
        <time>2011-08-20T09:23:48Z</time>
      </trkpt>
      <trkpt lat="45.43091" lon="6.29928">
        <ele>1137.3334</ele>
        <time>2011-08-20T09:24:17Z</time>
      </trkpt>
      <trkpt lat="45.43074" lon="6.29916">
        <ele>1140</ele>
        <time>2011-08-20T09:24:30Z</time>
      </trkpt>
      <trkpt lat="45.43053" lon="6.29912">
        <ele>1142.6666</ele>
        <time>2011-08-20T09:24:43Z</time>
      </trkpt>
      <trkpt lat="45.43033" lon="6.29916">
        <ele>1142.6666</ele>
        <time>2011-08-20T09:24:56Z</time>
      </trkpt>
      <trkpt lat="45.43013" lon="6.29915">
        <ele>1142</ele>
        <time>2011-08-20T09:25:09Z</time>
      </trkpt>
      <trkpt lat="45.43029" lon="6.29929">
        <ele>1144.6666</ele>
        <time>2011-08-20T09:25:30Z</time>
      </trkpt>
      <trkpt lat="45.43047" lon="6.29921">
        <ele>1149.3334</ele>
        <time>2011-08-20T09:25:42Z</time>
      </trkpt>
      <trkpt lat="45.43065" lon="6.29925">
        <ele>1155.6666</ele>
        <time>2011-08-20T09:25:54Z</time>
      </trkpt>
      <trkpt lat="45.43079" lon="6.29942">
        <ele>1159.3334</ele>
        <time>2011-08-20T09:26:06Z</time>
      </trkpt>
      <trkpt lat="45.43093" lon="6.29961">
        <ele>1162.6666</ele>
        <time>2011-08-20T09:26:22Z</time>
      </trkpt>
      <trkpt lat="45.43106" lon="6.29983">
        <ele>1165</ele>
        <time>2011-08-20T09:26:34Z</time>
      </trkpt>
      <trkpt lat="45.43119" lon="6.30002">
        <ele>1166.3334</ele>
        <time>2011-08-20T09:26:45Z</time>
      </trkpt>
      <trkpt lat="45.43132" lon="6.30021">
        <ele>1167</ele>
        <time>2011-08-20T09:26:58Z</time>
      </trkpt>
      <trkpt lat="45.43148" lon="6.30033">
        <ele>1170</ele>
        <time>2011-08-20T09:27:12Z</time>
      </trkpt>
      <trkpt lat="45.43162" lon="6.30049">
        <ele>1173</ele>
        <time>2011-08-20T09:27:24Z</time>
      </trkpt>
      <trkpt lat="45.43178" lon="6.30066">
        <ele>1175.6666</ele>
        <time>2011-08-20T09:27:37Z</time>
      </trkpt>
      <trkpt lat="45.43191" lon="6.30086">
        <ele>1176.3334</ele>
        <time>2011-08-20T09:27:48Z</time>
      </trkpt>
      <trkpt lat="45.432" lon="6.3011">
        <ele>1178</ele>
        <time>2011-08-20T09:28:01Z</time>
      </trkpt>
      <trkpt lat="45.43209" lon="6.30132">
        <ele>1179.3334</ele>
        <time>2011-08-20T09:28:13Z</time>
      </trkpt>
      <trkpt lat="45.43225" lon="6.30149">
        <ele>1180.6666</ele>
        <time>2011-08-20T09:28:26Z</time>
      </trkpt>
      <trkpt lat="45.43236" lon="6.30172">
        <ele>1181.3334</ele>
        <time>2011-08-20T09:28:39Z</time>
      </trkpt>
      <trkpt lat="45.43252" lon="6.30184">
        <ele>1182.6666</ele>
        <time>2011-08-20T09:28:50Z</time>
      </trkpt>
      <trkpt lat="45.4327" lon="6.30199">
        <ele>1184</ele>
        <time>2011-08-20T09:29:03Z</time>
      </trkpt>
      <trkpt lat="45.4328" lon="6.30222">
        <ele>1185.6666</ele>
        <time>2011-08-20T09:29:16Z</time>
      </trkpt>
      <trkpt lat="45.43289" lon="6.30245">
        <ele>1187.6666</ele>
        <time>2011-08-20T09:29:29Z</time>
      </trkpt>
      <trkpt lat="45.43299" lon="6.30269">
        <ele>1190</ele>
        <time>2011-08-20T09:29:42Z</time>
      </trkpt>
      <trkpt lat="45.43288" lon="6.3029">
        <ele>1193.3334</ele>
        <time>2011-08-20T09:30:09Z</time>
      </trkpt>
      <trkpt lat="45.43277" lon="6.30269">
        <ele>1196.6666</ele>
        <time>2011-08-20T09:30:25Z</time>
      </trkpt>
      <trkpt lat="45.43271" lon="6.30242">
        <ele>1199.6666</ele>
        <time>2011-08-20T09:30:38Z</time>
      </trkpt>
      <trkpt lat="45.43261" lon="6.30221">
        <ele>1201.6666</ele>
        <time>2011-08-20T09:30:50Z</time>
      </trkpt>
      <trkpt lat="45.43246" lon="6.30205">
        <ele>1203.3334</ele>
        <time>2011-08-20T09:31:03Z</time>
      </trkpt>
      <trkpt lat="45.43228" lon="6.30196">
        <ele>1204</ele>
        <time>2011-08-20T09:31:16Z</time>
      </trkpt>
      <trkpt lat="45.4321" lon="6.30188">
        <ele>1205.3334</ele>
        <time>2011-08-20T09:31:29Z</time>
      </trkpt>
      <trkpt lat="45.43194" lon="6.30172">
        <ele>1207</ele>
        <time>2011-08-20T09:31:39Z</time>
      </trkpt>
      <trkpt lat="45.43179" lon="6.30153">
        <ele>1210.3334</ele>
        <time>2011-08-20T09:31:48Z</time>
      </trkpt>
      <trkpt lat="45.43164" lon="6.30132">
        <ele>1213</ele>
        <time>2011-08-20T09:31:55Z</time>
      </trkpt>
      <trkpt lat="45.43149" lon="6.30118">
        <ele>1214.6666</ele>
        <time>2011-08-20T09:32:00Z</time>
      </trkpt>
      <trkpt lat="45.43133" lon="6.30106">
        <ele>1214.3334</ele>
        <time>2011-08-20T09:32:05Z</time>
      </trkpt>
      <trkpt lat="45.43118" lon="6.30088">
        <ele>1213.6666</ele>
        <time>2011-08-20T09:32:11Z</time>
      </trkpt>
      <trkpt lat="45.43095" lon="6.30075">
        <ele>1212.3334</ele>
        <time>2011-08-20T09:32:18Z</time>
      </trkpt>
      <trkpt lat="45.43075" lon="6.30068">
        <ele>1211</ele>
        <time>2011-08-20T09:32:23Z</time>
      </trkpt>
      <trkpt lat="45.43056" lon="6.30059">
        <ele>1208.3334</ele>
        <time>2011-08-20T09:32:28Z</time>
      </trkpt>
      <trkpt lat="45.43039" lon="6.30049">
        <ele>1208</ele>
        <time>2011-08-20T09:32:32Z</time>
      </trkpt>
      <trkpt lat="45.43019" lon="6.30045">
        <ele>1208</ele>
        <time>2011-08-20T09:32:40Z</time>
      </trkpt>
      <trkpt lat="45.43" lon="6.30043">
        <ele>1208</ele>
        <time>2011-08-20T09:32:50Z</time>
      </trkpt>
      <trkpt lat="45.42982" lon="6.30029">
        <ele>1208.6666</ele>
        <time>2011-08-20T09:33:03Z</time>
      </trkpt>
      <trkpt lat="45.42965" lon="6.3002">
        <ele>1210.6666</ele>
        <time>2011-08-20T09:33:16Z</time>
      </trkpt>
      <trkpt lat="45.42951" lon="6.3">
        <ele>1215</ele>
        <time>2011-08-20T09:33:27Z</time>
      </trkpt>
      <trkpt lat="45.42935" lon="6.29989">
        <ele>1218.3334</ele>
        <time>2011-08-20T09:33:39Z</time>
      </trkpt>
      <trkpt lat="45.42915" lon="6.29989">
        <ele>1221</ele>
        <time>2011-08-20T09:33:53Z</time>
      </trkpt>
      <trkpt lat="45.42896" lon="6.29995">
        <ele>1222</ele>
        <time>2011-08-20T09:34:05Z</time>
      </trkpt>
      <trkpt lat="45.42878" lon="6.30001">
        <ele>1221</ele>
        <time>2011-08-20T09:34:15Z</time>
      </trkpt>
      <trkpt lat="45.4286" lon="6.3001">
        <ele>1220</ele>
        <time>2011-08-20T09:34:28Z</time>
      </trkpt>
      <trkpt lat="45.42837" lon="6.30011">
        <ele>1219.6666</ele>
        <time>2011-08-20T09:34:41Z</time>
      </trkpt>
      <trkpt lat="45.42819" lon="6.30007">
        <ele>1220.3334</ele>
        <time>2011-08-20T09:34:55Z</time>
      </trkpt>
      <trkpt lat="45.42797" lon="6.30009">
        <ele>1221.6666</ele>
        <time>2011-08-20T09:35:07Z</time>
      </trkpt>
      <trkpt lat="45.42778" lon="6.3001">
        <ele>1223.3334</ele>
        <time>2011-08-20T09:35:15Z</time>
      </trkpt>
      <trkpt lat="45.42797" lon="6.30014">
        <ele>1231.6666</ele>
        <time>2011-08-20T09:35:51Z</time>
      </trkpt>
      <trkpt lat="45.42816" lon="6.30011">
        <ele>1240.3334</ele>
        <time>2011-08-20T09:36:03Z</time>
      </trkpt>
      <trkpt lat="45.42834" lon="6.30021">
        <ele>1249</ele>
        <time>2011-08-20T09:36:16Z</time>
      </trkpt>
      <trkpt lat="45.42852" lon="6.30025">
        <ele>1250.6666</ele>
        <time>2011-08-20T09:36:28Z</time>
      </trkpt>
      <trkpt lat="45.4287" lon="6.30032">
        <ele>1251.3334</ele>
        <time>2011-08-20T09:36:43Z</time>
      </trkpt>
      <trkpt lat="45.42889" lon="6.30035">
        <ele>1252.6666</ele>
        <time>2011-08-20T09:36:54Z</time>
      </trkpt>
      <trkpt lat="45.42907" lon="6.30037">
        <ele>1254.6666</ele>
        <time>2011-08-20T09:37:07Z</time>
      </trkpt>
      <trkpt lat="45.42928" lon="6.3004">
        <ele>1257.3334</ele>
        <time>2011-08-20T09:37:21Z</time>
      </trkpt>
      <trkpt lat="45.42944" lon="6.30051">
        <ele>1260.3334</ele>
        <time>2011-08-20T09:37:36Z</time>
      </trkpt>
      <trkpt lat="45.42959" lon="6.30067">
        <ele>1262.6666</ele>
        <time>2011-08-20T09:37:49Z</time>
      </trkpt>
      <trkpt lat="45.42975" lon="6.30081">
        <ele>1264.6666</ele>
        <time>2011-08-20T09:38:02Z</time>
      </trkpt>
      <trkpt lat="45.42989" lon="6.30097">
        <ele>1266</ele>
        <time>2011-08-20T09:38:16Z</time>
      </trkpt>
      <trkpt lat="45.43004" lon="6.30113">
        <ele>1268.3334</ele>
        <time>2011-08-20T09:38:28Z</time>
      </trkpt>
      <trkpt lat="45.43018" lon="6.3013">
        <ele>1270</ele>
        <time>2011-08-20T09:38:40Z</time>
      </trkpt>
      <trkpt lat="45.43035" lon="6.30143">
        <ele>1271.3334</ele>
        <time>2011-08-20T09:38:52Z</time>
      </trkpt>
      <trkpt lat="45.43052" lon="6.30156">
        <ele>1272.6666</ele>
        <time>2011-08-20T09:39:05Z</time>
      </trkpt>
      <trkpt lat="45.43067" lon="6.30173">
        <ele>1274.3334</ele>
        <time>2011-08-20T09:39:18Z</time>
      </trkpt>
      <trkpt lat="45.43084" lon="6.30184">
        <ele>1277</ele>
        <time>2011-08-20T09:39:31Z</time>
      </trkpt>
      <trkpt lat="45.431" lon="6.30199">
        <ele>1279</ele>
        <time>2011-08-20T09:39:42Z</time>
      </trkpt>
      <trkpt lat="45.43114" lon="6.30217">
        <ele>1281</ele>
        <time>2011-08-20T09:39:54Z</time>
      </trkpt>
      <trkpt lat="45.43126" lon="6.30238">
        <ele>1281.6666</ele>
        <time>2011-08-20T09:40:07Z</time>
      </trkpt>
      <trkpt lat="45.43139" lon="6.30259">
        <ele>1282.6666</ele>
        <time>2011-08-20T09:40:22Z</time>
      </trkpt>
      <trkpt lat="45.43151" lon="6.30278">
        <ele>1284.6666</ele>
        <time>2011-08-20T09:40:34Z</time>
      </trkpt>
      <trkpt lat="45.43164" lon="6.30299">
        <ele>1287.6666</ele>
        <time>2011-08-20T09:40:47Z</time>
      </trkpt>
      <trkpt lat="45.43174" lon="6.30322">
        <ele>1290.3334</ele>
        <time>2011-08-20T09:41:01Z</time>
      </trkpt>
      <trkpt lat="45.43187" lon="6.30342">
        <ele>1291.6666</ele>
        <time>2011-08-20T09:41:13Z</time>
      </trkpt>
      <trkpt lat="45.432" lon="6.30362">
        <ele>1293</ele>
        <time>2011-08-20T09:41:26Z</time>
      </trkpt>
      <trkpt lat="45.43214" lon="6.30381">
        <ele>1294.3334</ele>
        <time>2011-08-20T09:41:38Z</time>
      </trkpt>
      <trkpt lat="45.43226" lon="6.30404">
        <ele>1297</ele>
        <time>2011-08-20T09:41:52Z</time>
      </trkpt>
      <trkpt lat="45.43236" lon="6.30426">
        <ele>1299.3334</ele>
        <time>2011-08-20T09:42:03Z</time>
      </trkpt>
      <trkpt lat="45.43251" lon="6.30446">
        <ele>1301.3334</ele>
        <time>2011-08-20T09:42:16Z</time>
      </trkpt>
      <trkpt lat="45.43265" lon="6.30462">
        <ele>1302</ele>
        <time>2011-08-20T09:42:29Z</time>
      </trkpt>
      <trkpt lat="45.43278" lon="6.30482">
        <ele>1303.3334</ele>
        <time>2011-08-20T09:42:42Z</time>
      </trkpt>
      <trkpt lat="45.43293" lon="6.30496">
        <ele>1305.6666</ele>
        <time>2011-08-20T09:42:52Z</time>
      </trkpt>
      <trkpt lat="45.43309" lon="6.30509">
        <ele>1309</ele>
        <time>2011-08-20T09:43:03Z</time>
      </trkpt>
      <trkpt lat="45.43325" lon="6.30521">
        <ele>1311</ele>
        <time>2011-08-20T09:43:13Z</time>
      </trkpt>
      <trkpt lat="45.43339" lon="6.30537">
        <ele>1312.3334</ele>
        <time>2011-08-20T09:43:23Z</time>
      </trkpt>
      <trkpt lat="45.43354" lon="6.30554">
        <ele>1312.6666</ele>
        <time>2011-08-20T09:43:34Z</time>
      </trkpt>
      <trkpt lat="45.43337" lon="6.30545">
        <ele>1315.3334</ele>
        <time>2011-08-20T09:54:12Z</time>
      </trkpt>
      <trkpt lat="45.43321" lon="6.30528">
        <ele>1317.6666</ele>
        <time>2011-08-20T09:54:26Z</time>
      </trkpt>
      <trkpt lat="45.43302" lon="6.30524">
        <ele>1319.3334</ele>
        <time>2011-08-20T09:54:34Z</time>
      </trkpt>
      <trkpt lat="45.43283" lon="6.3052">
        <ele>1318.3334</ele>
        <time>2011-08-20T09:54:44Z</time>
      </trkpt>
      <trkpt lat="45.43265" lon="6.30512">
        <ele>1317.3334</ele>
        <time>2011-08-20T09:54:59Z</time>
      </trkpt>
      <trkpt lat="45.43247" lon="6.30502">
        <ele>1316.6666</ele>
        <time>2011-08-20T09:55:07Z</time>
      </trkpt>
      <trkpt lat="45.43229" lon="6.30492">
        <ele>1316.6666</ele>
        <time>2011-08-20T09:55:18Z</time>
      </trkpt>
      <trkpt lat="45.43218" lon="6.30471">
        <ele>1318.6666</ele>
        <time>2011-08-20T09:55:30Z</time>
      </trkpt>
      <trkpt lat="45.43201" lon="6.30451">
        <ele>1324</ele>
        <time>2011-08-20T09:55:42Z</time>
      </trkpt>
      <trkpt lat="45.43187" lon="6.30432">
        <ele>1331.6666</ele>
        <time>2011-08-20T09:55:56Z</time>
      </trkpt>
      <trkpt lat="45.43174" lon="6.30407">
        <ele>1339.3334</ele>
        <time>2011-08-20T09:56:08Z</time>
      </trkpt>
      <trkpt lat="45.43155" lon="6.30382">
        <ele>1344</ele>
        <time>2011-08-20T09:56:21Z</time>
      </trkpt>
      <trkpt lat="45.43137" lon="6.30365">
        <ele>1344.6666</ele>
        <time>2011-08-20T09:56:29Z</time>
      </trkpt>
      <trkpt lat="45.43124" lon="6.30345">
        <ele>1343.3334</ele>
        <time>2011-08-20T09:56:39Z</time>
      </trkpt>
      <trkpt lat="45.4311" lon="6.30329">
        <ele>1343.6666</ele>
        <time>2011-08-20T09:56:49Z</time>
      </trkpt>
      <trkpt lat="45.43093" lon="6.3031">
        <ele>1346.3334</ele>
        <time>2011-08-20T09:57:00Z</time>
      </trkpt>
      <trkpt lat="45.43074" lon="6.30308">
        <ele>1348.6666</ele>
        <time>2011-08-20T09:57:05Z</time>
      </trkpt>
      <trkpt lat="45.43084" lon="6.30336">
        <ele>1350</ele>
        <time>2011-08-20T09:57:26Z</time>
      </trkpt>
      <trkpt lat="45.43098" lon="6.30356">
        <ele>1351.3334</ele>
        <time>2011-08-20T09:57:39Z</time>
      </trkpt>
      <trkpt lat="45.43112" lon="6.30379">
        <ele>1353.6666</ele>
        <time>2011-08-20T09:57:52Z</time>
      </trkpt>
      <trkpt lat="45.43127" lon="6.30405">
        <ele>1356.3334</ele>
        <time>2011-08-20T09:58:05Z</time>
      </trkpt>
      <trkpt lat="45.43142" lon="6.30426">
        <ele>1359</ele>
        <time>2011-08-20T09:58:18Z</time>
      </trkpt>
      <trkpt lat="45.43153" lon="6.3045">
        <ele>1363.3334</ele>
        <time>2011-08-20T09:58:31Z</time>
      </trkpt>
      <trkpt lat="45.43163" lon="6.30475">
        <ele>1366</ele>
        <time>2011-08-20T09:58:40Z</time>
      </trkpt>
      <trkpt lat="45.43173" lon="6.30496">
        <ele>1367.3334</ele>
        <time>2011-08-20T09:58:51Z</time>
      </trkpt>
      <trkpt lat="45.43189" lon="6.3051">
        <ele>1368</ele>
        <time>2011-08-20T09:59:03Z</time>
      </trkpt>
      <trkpt lat="45.43204" lon="6.30526">
        <ele>1370.3334</ele>
        <time>2011-08-20T09:59:16Z</time>
      </trkpt>
      <trkpt lat="45.43222" lon="6.30536">
        <ele>1375.6666</ele>
        <time>2011-08-20T09:59:27Z</time>
      </trkpt>
      <trkpt lat="45.4323" lon="6.30562">
        <ele>1377.6666</ele>
        <time>2011-08-20T09:59:37Z</time>
      </trkpt>
      <trkpt lat="45.43244" lon="6.3058">
        <ele>1378.3334</ele>
        <time>2011-08-20T09:59:44Z</time>
      </trkpt>
      <trkpt lat="45.43255" lon="6.30603">
        <ele>1376</ele>
        <time>2011-08-20T09:59:56Z</time>
      </trkpt>
      <trkpt lat="45.43267" lon="6.30623">
        <ele>1375.6666</ele>
        <time>2011-08-20T10:00:07Z</time>
      </trkpt>
      <trkpt lat="45.43277" lon="6.30645">
        <ele>1376</ele>
        <time>2011-08-20T10:00:17Z</time>
      </trkpt>
      <trkpt lat="45.43288" lon="6.30667">
        <ele>1377.6666</ele>
        <time>2011-08-20T10:00:28Z</time>
      </trkpt>
      <trkpt lat="45.43297" lon="6.3069">
        <ele>1379.6666</ele>
        <time>2011-08-20T10:00:41Z</time>
      </trkpt>
      <trkpt lat="45.43316" lon="6.30705">
        <ele>1383</ele>
        <time>2011-08-20T10:00:54Z</time>
      </trkpt>
      <trkpt lat="45.43334" lon="6.30721">
        <ele>1387.3334</ele>
        <time>2011-08-20T10:01:07Z</time>
      </trkpt>
      <trkpt lat="45.43347" lon="6.3074">
        <ele>1391</ele>
        <time>2011-08-20T10:01:16Z</time>
      </trkpt>
      <trkpt lat="45.43362" lon="6.30758">
        <ele>1393.3334</ele>
        <time>2011-08-20T10:01:26Z</time>
      </trkpt>
      <trkpt lat="45.43375" lon="6.30777">
        <ele>1394.6666</ele>
        <time>2011-08-20T10:01:38Z</time>
      </trkpt>
      <trkpt lat="45.43384" lon="6.30801">
        <ele>1396.3334</ele>
        <time>2011-08-20T10:01:48Z</time>
      </trkpt>
      <trkpt lat="45.43399" lon="6.30816">
        <ele>1399.3334</ele>
        <time>2011-08-20T10:01:59Z</time>
      </trkpt>
      <trkpt lat="45.43414" lon="6.30833">
        <ele>1401.6666</ele>
        <time>2011-08-20T10:02:09Z</time>
      </trkpt>
      <trkpt lat="45.43429" lon="6.30852">
        <ele>1404.6666</ele>
        <time>2011-08-20T10:02:25Z</time>
      </trkpt>
      <trkpt lat="45.43447" lon="6.30871">
        <ele>1407.6666</ele>
        <time>2011-08-20T10:02:38Z</time>
      </trkpt>
      <trkpt lat="45.43461" lon="6.30889">
        <ele>1410.3334</ele>
        <time>2011-08-20T10:02:51Z</time>
      </trkpt>
      <trkpt lat="45.4348" lon="6.30909">
        <ele>1411.6666</ele>
        <time>2011-08-20T10:03:04Z</time>
      </trkpt>
      <trkpt lat="45.43493" lon="6.30931">
        <ele>1410</ele>
        <time>2011-08-20T10:03:17Z</time>
      </trkpt>
      <trkpt lat="45.4351" lon="6.30949">
        <ele>1409</ele>
        <time>2011-08-20T10:03:33Z</time>
      </trkpt>
      <trkpt lat="45.43526" lon="6.30965">
        <ele>1408</ele>
        <time>2011-08-20T10:03:43Z</time>
      </trkpt>
      <trkpt lat="45.43539" lon="6.30983">
        <ele>1408.3334</ele>
        <time>2011-08-20T10:03:52Z</time>
      </trkpt>
      <trkpt lat="45.43557" lon="6.30996">
        <ele>1409.3334</ele>
        <time>2011-08-20T10:04:09Z</time>
      </trkpt>
      <trkpt lat="45.43571" lon="6.31015">
        <ele>1412</ele>
        <time>2011-08-20T10:04:23Z</time>
      </trkpt>
      <trkpt lat="45.43588" lon="6.31026">
        <ele>1416</ele>
        <time>2011-08-20T10:04:32Z</time>
      </trkpt>
      <trkpt lat="45.43603" lon="6.31042">
        <ele>1419</ele>
        <time>2011-08-20T10:04:42Z</time>
      </trkpt>
      <trkpt lat="45.4362" lon="6.31055">
        <ele>1421</ele>
        <time>2011-08-20T10:04:56Z</time>
      </trkpt>
      <trkpt lat="45.43636" lon="6.31067">
        <ele>1422.3334</ele>
        <time>2011-08-20T10:05:05Z</time>
      </trkpt>
      <trkpt lat="45.43653" lon="6.31076">
        <ele>1424.3334</ele>
        <time>2011-08-20T10:05:15Z</time>
      </trkpt>
      <trkpt lat="45.43671" lon="6.31087">
        <ele>1427</ele>
        <time>2011-08-20T10:05:24Z</time>
      </trkpt>
      <trkpt lat="45.43688" lon="6.311">
        <ele>1431</ele>
        <time>2011-08-20T10:05:40Z</time>
      </trkpt>
      <trkpt lat="45.43702" lon="6.31117">
        <ele>1434.3334</ele>
        <time>2011-08-20T10:05:53Z</time>
      </trkpt>
      <trkpt lat="45.4372" lon="6.31126">
        <ele>1436.6666</ele>
        <time>2011-08-20T10:06:01Z</time>
      </trkpt>
      <trkpt lat="45.43731" lon="6.31147">
        <ele>1438.3334</ele>
        <time>2011-08-20T10:06:14Z</time>
      </trkpt>
      <trkpt lat="45.43729" lon="6.31174">
        <ele>1442</ele>
        <time>2011-08-20T10:10:20Z</time>
      </trkpt>
      <trkpt lat="45.43728" lon="6.31201">
        <ele>1446.3334</ele>
        <time>2011-08-20T10:10:32Z</time>
      </trkpt>
      <trkpt lat="45.43721" lon="6.31225">
        <ele>1449.6666</ele>
        <time>2011-08-20T10:10:43Z</time>
      </trkpt>
      <trkpt lat="45.43719" lon="6.31251">
        <ele>1451</ele>
        <time>2011-08-20T10:10:53Z</time>
      </trkpt>
      <trkpt lat="45.43722" lon="6.31278">
        <ele>1452.6666</ele>
        <time>2011-08-20T10:11:07Z</time>
      </trkpt>
      <trkpt lat="45.43725" lon="6.31305">
        <ele>1454.3334</ele>
        <time>2011-08-20T10:11:19Z</time>
      </trkpt>
      <trkpt lat="45.43726" lon="6.31336">
        <ele>1454.6666</ele>
        <time>2011-08-20T10:11:31Z</time>
      </trkpt>
      <trkpt lat="45.43734" lon="6.31358">
        <ele>1453.3334</ele>
        <time>2011-08-20T10:11:41Z</time>
      </trkpt>
      <trkpt lat="45.43736" lon="6.31386">
        <ele>1453.3334</ele>
        <time>2011-08-20T10:11:54Z</time>
      </trkpt>
      <trkpt lat="45.43741" lon="6.31412">
        <ele>1456.3334</ele>
        <time>2011-08-20T10:12:07Z</time>
      </trkpt>
      <trkpt lat="45.43746" lon="6.31438">
        <ele>1460.3334</ele>
        <time>2011-08-20T10:12:19Z</time>
      </trkpt>
      <trkpt lat="45.43747" lon="6.31464">
        <ele>1463</ele>
        <time>2011-08-20T10:12:30Z</time>
      </trkpt>
      <trkpt lat="45.43754" lon="6.3149">
        <ele>1464.6666</ele>
        <time>2011-08-20T10:12:41Z</time>
      </trkpt>
      <trkpt lat="45.4376" lon="6.31515">
        <ele>1468.3334</ele>
        <time>2011-08-20T10:12:54Z</time>
      </trkpt>
      <trkpt lat="45.43755" lon="6.3154">
        <ele>1471</ele>
        <time>2011-08-20T10:13:04Z</time>
      </trkpt>
      <trkpt lat="45.43744" lon="6.3156">
        <ele>1472.6666</ele>
        <time>2011-08-20T10:13:18Z</time>
      </trkpt>
      <trkpt lat="45.43747" lon="6.31534">
        <ele>1472.3334</ele>
        <time>2011-08-20T10:13:55Z</time>
      </trkpt>
      <trkpt lat="45.4375" lon="6.31508">
        <ele>1472.3334</ele>
        <time>2011-08-20T10:14:12Z</time>
      </trkpt>
      <trkpt lat="45.43741" lon="6.31483">
        <ele>1473.6666</ele>
        <time>2011-08-20T10:14:28Z</time>
      </trkpt>
      <trkpt lat="45.43731" lon="6.31462">
        <ele>1475.6666</ele>
        <time>2011-08-20T10:14:41Z</time>
      </trkpt>
      <trkpt lat="45.43719" lon="6.31441">
        <ele>1479</ele>
        <time>2011-08-20T10:14:55Z</time>
      </trkpt>
      <trkpt lat="45.43709" lon="6.31419">
        <ele>1482</ele>
        <time>2011-08-20T10:15:09Z</time>
      </trkpt>
      <trkpt lat="45.437" lon="6.31394">
        <ele>1484.6666</ele>
        <time>2011-08-20T10:15:25Z</time>
      </trkpt>
      <trkpt lat="45.43692" lon="6.31371">
        <ele>1487</ele>
        <time>2011-08-20T10:15:39Z</time>
      </trkpt>
      <trkpt lat="45.4368" lon="6.3135">
        <ele>1489</ele>
        <time>2011-08-20T10:15:53Z</time>
      </trkpt>
      <trkpt lat="45.43671" lon="6.31327">
        <ele>1491.6666</ele>
        <time>2011-08-20T10:16:09Z</time>
      </trkpt>
      <trkpt lat="45.4366" lon="6.31306">
        <ele>1497</ele>
        <time>2011-08-20T10:16:26Z</time>
      </trkpt>
      <trkpt lat="45.43647" lon="6.31288">
        <ele>1502</ele>
        <time>2011-08-20T10:16:39Z</time>
      </trkpt>
      <trkpt lat="45.43631" lon="6.31272">
        <ele>1505.3334</ele>
        <time>2011-08-20T10:16:51Z</time>
      </trkpt>
      <trkpt lat="45.43615" lon="6.31258">
        <ele>1504.6666</ele>
        <time>2011-08-20T10:17:05Z</time>
      </trkpt>
      <trkpt lat="45.43602" lon="6.31281">
        <ele>1508</ele>
        <time>2011-08-20T10:24:18Z</time>
      </trkpt>
      <trkpt lat="45.4362" lon="6.31275">
        <ele>1510</ele>
        <time>2011-08-20T10:28:38Z</time>
      </trkpt>
      <trkpt lat="45.43607" lon="6.31255">
        <ele>1513.6666</ele>
        <time>2011-08-20T10:41:08Z</time>
      </trkpt>
      <trkpt lat="45.43594" lon="6.31238">
        <ele>1512.3334</ele>
        <time>2011-08-20T10:41:30Z</time>
      </trkpt>
      <trkpt lat="45.43578" lon="6.31225">
        <ele>1511</ele>
        <time>2011-08-20T10:41:42Z</time>
      </trkpt>
      <trkpt lat="45.4356" lon="6.31227">
        <ele>1508.6666</ele>
        <time>2011-08-20T10:41:47Z</time>
      </trkpt>
      <trkpt lat="45.43541" lon="6.31228">
        <ele>1505.6666</ele>
        <time>2011-08-20T10:41:55Z</time>
      </trkpt>
      <trkpt lat="45.43517" lon="6.31215">
        <ele>1502</ele>
        <time>2011-08-20T10:42:05Z</time>
      </trkpt>
      <trkpt lat="45.43497" lon="6.31204">
        <ele>1498.6666</ele>
        <time>2011-08-20T10:42:12Z</time>
      </trkpt>
      <trkpt lat="45.43479" lon="6.31197">
        <ele>1497.3334</ele>
        <time>2011-08-20T10:42:20Z</time>
      </trkpt>
      <trkpt lat="45.43458" lon="6.31189">
        <ele>1499.3334</ele>
        <time>2011-08-20T10:42:26Z</time>
      </trkpt>
      <trkpt lat="45.43443" lon="6.31173">
        <ele>1502.3334</ele>
        <time>2011-08-20T10:42:32Z</time>
      </trkpt>
      <trkpt lat="45.43426" lon="6.3116">
        <ele>1506.3334</ele>
        <time>2011-08-20T10:42:38Z</time>
      </trkpt>
      <trkpt lat="45.4341" lon="6.31143">
        <ele>1509</ele>
        <time>2011-08-20T10:42:46Z</time>
      </trkpt>
      <trkpt lat="45.43398" lon="6.31121">
        <ele>1511.3334</ele>
        <time>2011-08-20T10:42:53Z</time>
      </trkpt>
      <trkpt lat="45.43384" lon="6.31104">
        <ele>1512.3334</ele>
        <time>2011-08-20T10:43:00Z</time>
      </trkpt>
      <trkpt lat="45.43366" lon="6.31092">
        <ele>1513</ele>
        <time>2011-08-20T10:43:07Z</time>
      </trkpt>
      <trkpt lat="45.43349" lon="6.31079">
        <ele>1514</ele>
        <time>2011-08-20T10:43:12Z</time>
      </trkpt>
      <trkpt lat="45.43331" lon="6.31063">
        <ele>1515</ele>
        <time>2011-08-20T10:43:17Z</time>
      </trkpt>
      <trkpt lat="45.43317" lon="6.31045">
        <ele>1516.3334</ele>
        <time>2011-08-20T10:43:23Z</time>
      </trkpt>
      <trkpt lat="45.43302" lon="6.31029">
        <ele>1516.6666</ele>
        <time>2011-08-20T10:43:28Z</time>
      </trkpt>
      <trkpt lat="45.43285" lon="6.31001">
        <ele>1516.6666</ele>
        <time>2011-08-20T10:43:36Z</time>
      </trkpt>
      <trkpt lat="45.43273" lon="6.30983">
        <ele>1518</ele>
        <time>2011-08-20T10:43:43Z</time>
      </trkpt>
      <trkpt lat="45.43256" lon="6.30969">
        <ele>1519</ele>
        <time>2011-08-20T10:43:52Z</time>
      </trkpt>
      <trkpt lat="45.43238" lon="6.30952">
        <ele>1521</ele>
        <time>2011-08-20T10:44:02Z</time>
      </trkpt>
      <trkpt lat="45.43224" lon="6.30934">
        <ele>1522.3334</ele>
        <time>2011-08-20T10:44:11Z</time>
      </trkpt>
      <trkpt lat="45.43212" lon="6.30916">
        <ele>1524</ele>
        <time>2011-08-20T10:44:21Z</time>
      </trkpt>
      <trkpt lat="45.43199" lon="6.30898">
        <ele>1526.3334</ele>
        <time>2011-08-20T10:44:31Z</time>
      </trkpt>
      <trkpt lat="45.43183" lon="6.30883">
        <ele>1528.6666</ele>
        <time>2011-08-20T10:44:42Z</time>
      </trkpt>
      <trkpt lat="45.43169" lon="6.30863">
        <ele>1531.6666</ele>
        <time>2011-08-20T10:44:54Z</time>
      </trkpt>
      <trkpt lat="45.43155" lon="6.30845">
        <ele>1534.3334</ele>
        <time>2011-08-20T10:45:04Z</time>
      </trkpt>
      <trkpt lat="45.43139" lon="6.30822">
        <ele>1536</ele>
        <time>2011-08-20T10:45:20Z</time>
      </trkpt>
      <trkpt lat="45.43125" lon="6.30805">
        <ele>1537.6666</ele>
        <time>2011-08-20T10:45:29Z</time>
      </trkpt>
      <trkpt lat="45.43114" lon="6.30784">
        <ele>1540.3334</ele>
        <time>2011-08-20T10:45:39Z</time>
      </trkpt>
      <trkpt lat="45.43098" lon="6.30769">
        <ele>1543.3334</ele>
        <time>2011-08-20T10:45:52Z</time>
      </trkpt>
      <trkpt lat="45.43083" lon="6.30754">
        <ele>1547</ele>
        <time>2011-08-20T10:46:03Z</time>
      </trkpt>
      <trkpt lat="45.43064" lon="6.30748">
        <ele>1549</ele>
        <time>2011-08-20T10:46:18Z</time>
      </trkpt>
      <trkpt lat="45.43045" lon="6.30751">
        <ele>1551</ele>
        <time>2011-08-20T10:46:26Z</time>
      </trkpt>
      <trkpt lat="45.43025" lon="6.30756">
        <ele>1551.3334</ele>
        <time>2011-08-20T10:46:38Z</time>
      </trkpt>
      <trkpt lat="45.43007" lon="6.30763">
        <ele>1551.6666</ele>
        <time>2011-08-20T10:46:51Z</time>
      </trkpt>
      <trkpt lat="45.42997" lon="6.30787">
        <ele>1552.3334</ele>
        <time>2011-08-20T10:47:01Z</time>
      </trkpt>
      <trkpt lat="45.42988" lon="6.30809">
        <ele>1553.3334</ele>
        <time>2011-08-20T10:47:12Z</time>
      </trkpt>
      <trkpt lat="45.42972" lon="6.30825">
        <ele>1553.6666</ele>
        <time>2011-08-20T10:47:23Z</time>
      </trkpt>
      <trkpt lat="45.42956" lon="6.30837">
        <ele>1554.3334</ele>
        <time>2011-08-20T10:47:34Z</time>
      </trkpt>
      <trkpt lat="45.42937" lon="6.30844">
        <ele>1554.6666</ele>
        <time>2011-08-20T10:47:45Z</time>
      </trkpt>
      <trkpt lat="45.42917" lon="6.30851">
        <ele>1555.6666</ele>
        <time>2011-08-20T10:47:56Z</time>
      </trkpt>
      <trkpt lat="45.42894" lon="6.30858">
        <ele>1556.6666</ele>
        <time>2011-08-20T10:48:09Z</time>
      </trkpt>
      <trkpt lat="45.42876" lon="6.30864">
        <ele>1558.3334</ele>
        <time>2011-08-20T10:48:19Z</time>
      </trkpt>
      <trkpt lat="45.42858" lon="6.30875">
        <ele>1558.6666</ele>
        <time>2011-08-20T10:48:31Z</time>
      </trkpt>
      <trkpt lat="45.42841" lon="6.30886">
        <ele>1559</ele>
        <time>2011-08-20T10:48:44Z</time>
      </trkpt>
      <trkpt lat="45.42823" lon="6.30892">
        <ele>1560</ele>
        <time>2011-08-20T10:48:55Z</time>
      </trkpt>
      <trkpt lat="45.42803" lon="6.30892">
        <ele>1562.3334</ele>
        <time>2011-08-20T10:49:06Z</time>
      </trkpt>
      <trkpt lat="45.42783" lon="6.30894">
        <ele>1565</ele>
        <time>2011-08-20T10:49:17Z</time>
      </trkpt>
      <trkpt lat="45.42765" lon="6.30898">
        <ele>1566.6666</ele>
        <time>2011-08-20T10:49:28Z</time>
      </trkpt>
      <trkpt lat="45.42747" lon="6.309">
        <ele>1568</ele>
        <time>2011-08-20T10:49:40Z</time>
      </trkpt>
      <trkpt lat="45.42727" lon="6.309">
        <ele>1570</ele>
        <time>2011-08-20T10:49:53Z</time>
      </trkpt>
      <trkpt lat="45.42708" lon="6.30898">
        <ele>1571.6666</ele>
        <time>2011-08-20T10:50:07Z</time>
      </trkpt>
      <trkpt lat="45.42687" lon="6.30898">
        <ele>1574.3334</ele>
        <time>2011-08-20T10:50:19Z</time>
      </trkpt>
      <trkpt lat="45.42701" lon="6.30916">
        <ele>1576.3334</ele>
        <time>2011-08-20T10:50:39Z</time>
      </trkpt>
      <trkpt lat="45.4272" lon="6.3092">
        <ele>1578.6666</ele>
        <time>2011-08-20T10:50:51Z</time>
      </trkpt>
      <trkpt lat="45.42739" lon="6.30923">
        <ele>1580.3334</ele>
        <time>2011-08-20T10:51:04Z</time>
      </trkpt>
      <trkpt lat="45.42758" lon="6.30927">
        <ele>1581.6666</ele>
        <time>2011-08-20T10:51:16Z</time>
      </trkpt>
      <trkpt lat="45.42776" lon="6.30932">
        <ele>1583.3334</ele>
        <time>2011-08-20T10:51:28Z</time>
      </trkpt>
      <trkpt lat="45.42795" lon="6.30934">
        <ele>1585.3334</ele>
        <time>2011-08-20T10:51:40Z</time>
      </trkpt>
      <trkpt lat="45.42813" lon="6.30934">
        <ele>1588</ele>
        <time>2011-08-20T10:51:54Z</time>
      </trkpt>
      <trkpt lat="45.42832" lon="6.30931">
        <ele>1592</ele>
        <time>2011-08-20T10:52:09Z</time>
      </trkpt>
      <trkpt lat="45.4285" lon="6.30929">
        <ele>1596.3334</ele>
        <time>2011-08-20T10:52:21Z</time>
      </trkpt>
      <trkpt lat="45.4287" lon="6.30932">
        <ele>1600.6666</ele>
        <time>2011-08-20T10:52:32Z</time>
      </trkpt>
      <trkpt lat="45.42889" lon="6.3093">
        <ele>1603.3334</ele>
        <time>2011-08-20T10:52:43Z</time>
      </trkpt>
      <trkpt lat="45.42908" lon="6.30925">
        <ele>1606.3334</ele>
        <time>2011-08-20T10:52:55Z</time>
      </trkpt>
      <trkpt lat="45.42926" lon="6.30915">
        <ele>1610.3334</ele>
        <time>2011-08-20T10:53:08Z</time>
      </trkpt>
      <trkpt lat="45.42948" lon="6.30906">
        <ele>1615</ele>
        <time>2011-08-20T10:53:21Z</time>
      </trkpt>
      <trkpt lat="45.42966" lon="6.30903">
        <ele>1618</ele>
        <time>2011-08-20T10:53:29Z</time>
      </trkpt>
      <trkpt lat="45.42986" lon="6.30905">
        <ele>1619</ele>
        <time>2011-08-20T10:53:37Z</time>
      </trkpt>
      <trkpt lat="45.43004" lon="6.30909">
        <ele>1619</ele>
        <time>2011-08-20T10:53:44Z</time>
      </trkpt>
      <trkpt lat="45.43024" lon="6.30917">
        <ele>1618.6666</ele>
        <time>2011-08-20T10:53:51Z</time>
      </trkpt>
      <trkpt lat="45.43044" lon="6.30924">
        <ele>1618</ele>
        <time>2011-08-20T10:53:58Z</time>
      </trkpt>
      <trkpt lat="45.43062" lon="6.30931">
        <ele>1617.6666</ele>
        <time>2011-08-20T10:54:05Z</time>
      </trkpt>
      <trkpt lat="45.43084" lon="6.30949">
        <ele>1617.3334</ele>
        <time>2011-08-20T10:54:14Z</time>
      </trkpt>
      <trkpt lat="45.43099" lon="6.30969">
        <ele>1617</ele>
        <time>2011-08-20T10:54:21Z</time>
      </trkpt>
      <trkpt lat="45.43115" lon="6.3099">
        <ele>1616.3334</ele>
        <time>2011-08-20T10:54:27Z</time>
      </trkpt>
      <trkpt lat="45.43127" lon="6.3101">
        <ele>1616.3334</ele>
        <time>2011-08-20T10:54:33Z</time>
      </trkpt>
      <trkpt lat="45.43139" lon="6.31034">
        <ele>1617.3334</ele>
        <time>2011-08-20T10:54:40Z</time>
      </trkpt>
      <trkpt lat="45.43155" lon="6.31054">
        <ele>1617.3334</ele>
        <time>2011-08-20T10:54:46Z</time>
      </trkpt>
      <trkpt lat="45.43174" lon="6.31083">
        <ele>1616.6666</ele>
        <time>2011-08-20T10:54:53Z</time>
      </trkpt>
      <trkpt lat="45.43187" lon="6.31102">
        <ele>1615.6666</ele>
        <time>2011-08-20T10:54:58Z</time>
      </trkpt>
      <trkpt lat="45.43203" lon="6.31117">
        <ele>1616.3334</ele>
        <time>2011-08-20T10:55:03Z</time>
      </trkpt>
      <trkpt lat="45.43216" lon="6.31136">
        <ele>1617.3334</ele>
        <time>2011-08-20T10:55:08Z</time>
      </trkpt>
      <trkpt lat="45.43232" lon="6.31159">
        <ele>1616.6666</ele>
        <time>2011-08-20T10:55:13Z</time>
      </trkpt>
      <trkpt lat="45.43245" lon="6.31188">
        <ele>1614.3334</ele>
        <time>2011-08-20T10:55:19Z</time>
      </trkpt>
      <trkpt lat="45.43254" lon="6.31212">
        <ele>1612</ele>
        <time>2011-08-20T10:55:24Z</time>
      </trkpt>
      <trkpt lat="45.43268" lon="6.31229">
        <ele>1611</ele>
        <time>2011-08-20T10:55:28Z</time>
      </trkpt>
      <trkpt lat="45.43285" lon="6.31247">
        <ele>1611.3334</ele>
        <time>2011-08-20T10:55:33Z</time>
      </trkpt>
      <trkpt lat="45.43298" lon="6.31267">
        <ele>1612</ele>
        <time>2011-08-20T10:55:38Z</time>
      </trkpt>
      <trkpt lat="45.43322" lon="6.31286">
        <ele>1612.3334</ele>
        <time>2011-08-20T10:55:45Z</time>
      </trkpt>
      <trkpt lat="45.43339" lon="6.31301">
        <ele>1612.3334</ele>
        <time>2011-08-20T10:55:50Z</time>
      </trkpt>
      <trkpt lat="45.4335" lon="6.31325">
        <ele>1611.3334</ele>
        <time>2011-08-20T10:55:58Z</time>
      </trkpt>
      <trkpt lat="45.43362" lon="6.31346">
        <ele>1611.3334</ele>
        <time>2011-08-20T10:57:05Z</time>
      </trkpt>
      <trkpt lat="45.43379" lon="6.31365">
        <ele>1610.6666</ele>
        <time>2011-08-20T10:57:10Z</time>
      </trkpt>
      <trkpt lat="45.43392" lon="6.31387">
        <ele>1611</ele>
        <time>2011-08-20T10:57:17Z</time>
      </trkpt>
      <trkpt lat="45.43409" lon="6.31401">
        <ele>1610</ele>
        <time>2011-08-20T10:57:22Z</time>
      </trkpt>
      <trkpt lat="45.43434" lon="6.31424">
        <ele>1610.3334</ele>
        <time>2011-08-20T10:57:29Z</time>
      </trkpt>
      <trkpt lat="45.43445" lon="6.31445">
        <ele>1610.3334</ele>
        <time>2011-08-20T10:57:37Z</time>
      </trkpt>
      <trkpt lat="45.43457" lon="6.31466">
        <ele>1610.3334</ele>
        <time>2011-08-20T10:57:45Z</time>
      </trkpt>
      <trkpt lat="45.43474" lon="6.31489">
        <ele>1610.3334</ele>
        <time>2011-08-20T10:57:55Z</time>
      </trkpt>
      <trkpt lat="45.43488" lon="6.31509">
        <ele>1610.6666</ele>
        <time>2011-08-20T10:58:04Z</time>
      </trkpt>
      <trkpt lat="45.43489" lon="6.31535">
        <ele>1611.3334</ele>
        <time>2011-08-20T10:58:12Z</time>
      </trkpt>
      <trkpt lat="45.43477" lon="6.31555">
        <ele>1614</ele>
        <time>2011-08-20T10:58:21Z</time>
      </trkpt>
      <trkpt lat="45.43461" lon="6.31574">
        <ele>1616.3334</ele>
        <time>2011-08-20T10:58:30Z</time>
      </trkpt>
      <trkpt lat="45.43463" lon="6.31602">
        <ele>1618.3334</ele>
        <time>2011-08-20T10:58:37Z</time>
      </trkpt>
      <trkpt lat="45.43462" lon="6.3163">
        <ele>1618</ele>
        <time>2011-08-20T10:58:47Z</time>
      </trkpt>
      <trkpt lat="45.43473" lon="6.31651">
        <ele>1618</ele>
        <time>2011-08-20T10:58:56Z</time>
      </trkpt>
      <trkpt lat="45.43486" lon="6.31671">
        <ele>1618.6666</ele>
        <time>2011-08-20T10:59:05Z</time>
      </trkpt>
      <trkpt lat="45.43486" lon="6.31697">
        <ele>1618.3334</ele>
        <time>2011-08-20T10:59:13Z</time>
      </trkpt>
      <trkpt lat="45.43488" lon="6.31724">
        <ele>1617.6666</ele>
        <time>2011-08-20T10:59:23Z</time>
      </trkpt>
      <trkpt lat="45.43492" lon="6.31756">
        <ele>1618.3334</ele>
        <time>2011-08-20T10:59:39Z</time>
      </trkpt>
      <trkpt lat="45.43502" lon="6.31778">
        <ele>1618</ele>
        <time>2011-08-20T10:59:47Z</time>
      </trkpt>
      <trkpt lat="45.43506" lon="6.31805">
        <ele>1619.6666</ele>
        <time>2011-08-20T11:00:02Z</time>
      </trkpt>
      <trkpt lat="45.43511" lon="6.31829">
        <ele>1618.3334</ele>
        <time>2011-08-20T11:00:09Z</time>
      </trkpt>
      <trkpt lat="45.43497" lon="6.31853">
        <ele>1618</ele>
        <time>2011-08-20T11:00:18Z</time>
      </trkpt>
      <trkpt lat="45.43478" lon="6.31866">
        <ele>1615.6666</ele>
        <time>2011-08-20T11:00:25Z</time>
      </trkpt>
      <trkpt lat="45.43453" lon="6.3188">
        <ele>1614.6666</ele>
        <time>2011-08-20T11:00:31Z</time>
      </trkpt>
      <trkpt lat="45.43456" lon="6.31909">
        <ele>1614.3334</ele>
        <time>2011-08-20T11:00:35Z</time>
      </trkpt>
      <trkpt lat="45.43463" lon="6.31936">
        <ele>1614.3334</ele>
        <time>2011-08-20T11:00:40Z</time>
      </trkpt>
      <trkpt lat="45.43457" lon="6.31964">
        <ele>1615</ele>
        <time>2011-08-20T11:00:46Z</time>
      </trkpt>
      <trkpt lat="45.43451" lon="6.31992">
        <ele>1615.6666</ele>
        <time>2011-08-20T11:00:52Z</time>
      </trkpt>
      <trkpt lat="45.43453" lon="6.32021">
        <ele>1616.6666</ele>
        <time>2011-08-20T11:00:58Z</time>
      </trkpt>
      <trkpt lat="45.43451" lon="6.32049">
        <ele>1617.3334</ele>
        <time>2011-08-20T11:01:03Z</time>
      </trkpt>
      <trkpt lat="45.43449" lon="6.32086">
        <ele>1618.3334</ele>
        <time>2011-08-20T11:01:10Z</time>
      </trkpt>
      <trkpt lat="45.43454" lon="6.32115">
        <ele>1618.6666</ele>
        <time>2011-08-20T11:01:15Z</time>
      </trkpt>
      <trkpt lat="45.43465" lon="6.32141">
        <ele>1619.3334</ele>
        <time>2011-08-20T11:01:20Z</time>
      </trkpt>
      <trkpt lat="45.43477" lon="6.3216">
        <ele>1619.6666</ele>
        <time>2011-08-20T11:01:24Z</time>
      </trkpt>
      <trkpt lat="45.43495" lon="6.32178">
        <ele>1620</ele>
        <time>2011-08-20T11:01:29Z</time>
      </trkpt>
      <trkpt lat="45.43501" lon="6.32213">
        <ele>1623</ele>
        <time>2011-08-20T11:01:36Z</time>
      </trkpt>
      <trkpt lat="45.43507" lon="6.32242">
        <ele>1626</ele>
        <time>2011-08-20T11:01:42Z</time>
      </trkpt>
      <trkpt lat="45.43516" lon="6.32277">
        <ele>1630</ele>
        <time>2011-08-20T11:01:49Z</time>
      </trkpt>
      <trkpt lat="45.43519" lon="6.32306">
        <ele>1631</ele>
        <time>2011-08-20T11:01:54Z</time>
      </trkpt>
      <trkpt lat="45.43537" lon="6.32337">
        <ele>1633.6666</ele>
        <time>2011-08-20T11:02:02Z</time>
      </trkpt>
      <trkpt lat="45.43549" lon="6.32358">
        <ele>1635.3334</ele>
        <time>2011-08-20T11:02:06Z</time>
      </trkpt>
      <trkpt lat="45.43565" lon="6.32373">
        <ele>1637</ele>
        <time>2011-08-20T11:02:12Z</time>
      </trkpt>
      <trkpt lat="45.43582" lon="6.32383">
        <ele>1636.3334</ele>
        <time>2011-08-20T11:02:18Z</time>
      </trkpt>
      <trkpt lat="45.436" lon="6.32391">
        <ele>1636</ele>
        <time>2011-08-20T11:02:25Z</time>
      </trkpt>
      <trkpt lat="45.43619" lon="6.32405">
        <ele>1635.3334</ele>
        <time>2011-08-20T11:02:30Z</time>
      </trkpt>
      <trkpt lat="45.43634" lon="6.32426">
        <ele>1635.3334</ele>
        <time>2011-08-20T11:02:35Z</time>
      </trkpt>
      <trkpt lat="45.43625" lon="6.32449">
        <ele>1634.6666</ele>
        <time>2011-08-20T11:02:45Z</time>
      </trkpt>
      <trkpt lat="45.43619" lon="6.32474">
        <ele>1632.6666</ele>
        <time>2011-08-20T11:02:57Z</time>
      </trkpt>
      <trkpt lat="45.43616" lon="6.32501">
        <ele>1632</ele>
        <time>2011-08-20T11:03:11Z</time>
      </trkpt>
      <trkpt lat="45.43626" lon="6.32525">
        <ele>1631.6666</ele>
        <time>2011-08-20T11:03:24Z</time>
      </trkpt>
      <trkpt lat="45.43634" lon="6.32549">
        <ele>1635</ele>
        <time>2011-08-20T11:03:40Z</time>
      </trkpt>
      <trkpt lat="45.4365" lon="6.32566">
        <ele>1638</ele>
        <time>2011-08-20T11:03:54Z</time>
      </trkpt>
      <trkpt lat="45.43666" lon="6.32578">
        <ele>1641.6666</ele>
        <time>2011-08-20T11:04:03Z</time>
      </trkpt>
      <trkpt lat="45.43686" lon="6.32587">
        <ele>1644.3334</ele>
        <time>2011-08-20T11:04:12Z</time>
      </trkpt>
      <trkpt lat="45.43702" lon="6.32576">
        <ele>1648.3334</ele>
        <time>2011-08-20T11:04:42Z</time>
      </trkpt>
      <trkpt lat="45.43714" lon="6.32556">
        <ele>1653.3334</ele>
        <time>2011-08-20T11:05:00Z</time>
      </trkpt>
      <trkpt lat="45.43731" lon="6.32566">
        <ele>1660.6666</ele>
        <time>2011-08-20T11:05:21Z</time>
      </trkpt>
      <trkpt lat="45.43744" lon="6.32585">
        <ele>1666</ele>
        <time>2011-08-20T11:05:34Z</time>
      </trkpt>
      <trkpt lat="45.43756" lon="6.32605">
        <ele>1669.6666</ele>
        <time>2011-08-20T11:05:49Z</time>
      </trkpt>
      <trkpt lat="45.43772" lon="6.32621">
        <ele>1670.6666</ele>
        <time>2011-08-20T11:06:06Z</time>
      </trkpt>
      <trkpt lat="45.43789" lon="6.32614">
        <ele>1672.3334</ele>
        <time>2011-08-20T11:06:27Z</time>
      </trkpt>
      <trkpt lat="45.43807" lon="6.32607">
        <ele>1676.3334</ele>
        <time>2011-08-20T11:06:45Z</time>
      </trkpt>
      <trkpt lat="45.43824" lon="6.32596">
        <ele>1682</ele>
        <time>2011-08-20T11:07:14Z</time>
      </trkpt>
      <trkpt lat="45.43838" lon="6.32613">
        <ele>1684.3334</ele>
        <time>2011-08-20T11:49:07Z</time>
      </trkpt>
      <trkpt lat="45.43851" lon="6.3263">
        <ele>1683.3334</ele>
        <time>2011-08-20T11:49:18Z</time>
      </trkpt>
      <trkpt lat="45.43866" lon="6.32646">
        <ele>1679.6666</ele>
        <time>2011-08-20T11:49:27Z</time>
      </trkpt>
      <trkpt lat="45.43876" lon="6.32671">
        <ele>1677.6666</ele>
        <time>2011-08-20T11:49:34Z</time>
      </trkpt>
      <trkpt lat="45.43884" lon="6.32696">
        <ele>1676.3334</ele>
        <time>2011-08-20T11:49:40Z</time>
      </trkpt>
      <trkpt lat="45.4388" lon="6.32721">
        <ele>1677.6666</ele>
        <time>2011-08-20T11:53:14Z</time>
      </trkpt>
      <trkpt lat="45.43883" lon="6.32747">
        <ele>1680</ele>
        <time>2011-08-20T11:53:35Z</time>
      </trkpt>
      <trkpt lat="45.43887" lon="6.32772">
        <ele>1683</ele>
        <time>2011-08-20T11:53:58Z</time>
      </trkpt>
      <trkpt lat="45.43892" lon="6.32798">
        <ele>1684.3334</ele>
        <time>2011-08-20T11:54:19Z</time>
      </trkpt>
      <trkpt lat="45.43899" lon="6.32823">
        <ele>1686.6666</ele>
        <time>2011-08-20T11:54:48Z</time>
      </trkpt>
      <trkpt lat="45.43903" lon="6.32848">
        <ele>1689.3334</ele>
        <time>2011-08-20T11:55:23Z</time>
      </trkpt>
      <trkpt lat="45.43907" lon="6.32874">
        <ele>1694</ele>
        <time>2011-08-20T11:56:20Z</time>
      </trkpt>
      <trkpt lat="45.43921" lon="6.32896">
        <ele>1699</ele>
        <time>2011-08-20T11:57:29Z</time>
      </trkpt>
      <trkpt lat="45.43931" lon="6.32918">
        <ele>1703.6666</ele>
        <time>2011-08-20T11:57:59Z</time>
      </trkpt>
      <trkpt lat="45.4394" lon="6.3294">
        <ele>1705.6666</ele>
        <time>2011-08-20T11:58:39Z</time>
      </trkpt>
      <trkpt lat="45.43956" lon="6.32955">
        <ele>1707.3334</ele>
        <time>2011-08-20T11:59:06Z</time>
      </trkpt>
      <trkpt lat="45.43974" lon="6.32959">
        <ele>1710.3334</ele>
        <time>2011-08-20T11:59:57Z</time>
      </trkpt>
      <trkpt lat="45.43988" lon="6.32978">
        <ele>1714.6666</ele>
        <time>2011-08-20T12:00:13Z</time>
      </trkpt>
      <trkpt lat="45.44002" lon="6.32995">
        <ele>1719</ele>
        <time>2011-08-20T12:00:39Z</time>
      </trkpt>
      <trkpt lat="45.44019" lon="6.33006">
        <ele>1724</ele>
        <time>2011-08-20T12:01:09Z</time>
      </trkpt>
      <trkpt lat="45.44033" lon="6.33022">
        <ele>1728</ele>
        <time>2011-08-20T12:01:35Z</time>
      </trkpt>
      <trkpt lat="45.44052" lon="6.33025">
        <ele>1732</ele>
        <time>2011-08-20T12:02:16Z</time>
      </trkpt>
      <trkpt lat="45.4407" lon="6.33029">
        <ele>1735</ele>
        <time>2011-08-20T12:02:37Z</time>
      </trkpt>
      <trkpt lat="45.44087" lon="6.33038">
        <ele>1736</ele>
        <time>2011-08-20T12:05:03Z</time>
      </trkpt>
      <trkpt lat="45.44106" lon="6.3304">
        <ele>1734.6666</ele>
        <time>2011-08-20T12:10:24Z</time>
      </trkpt>
      <trkpt lat="45.44121" lon="6.33027">
        <ele>1734</ele>
        <time>2011-08-20T12:10:51Z</time>
      </trkpt>
      <trkpt lat="45.44139" lon="6.33014">
        <ele>1737.3334</ele>
        <time>2011-08-20T12:11:12Z</time>
      </trkpt>
      <trkpt lat="45.44151" lon="6.32993">
        <ele>1740</ele>
        <time>2011-08-20T12:11:16Z</time>
      </trkpt>
      <trkpt lat="45.44164" lon="6.32973">
        <ele>1739.3334</ele>
        <time>2011-08-20T12:12:56Z</time>
      </trkpt>
      <trkpt lat="45.4418" lon="6.32946">
        <ele>1736.3334</ele>
        <time>2011-08-20T12:13:09Z</time>
      </trkpt>
      <trkpt lat="45.44188" lon="6.32922">
        <ele>1735.6666</ele>
        <time>2011-08-20T12:13:16Z</time>
      </trkpt>
      <trkpt lat="45.442" lon="6.329">
        <ele>1735.3334</ele>
        <time>2011-08-20T12:13:23Z</time>
      </trkpt>
      <trkpt lat="45.44216" lon="6.32884">
        <ele>1734</ele>
        <time>2011-08-20T12:13:30Z</time>
      </trkpt>
      <trkpt lat="45.44233" lon="6.32872">
        <ele>1730.6666</ele>
        <time>2011-08-20T12:13:45Z</time>
      </trkpt>
      <trkpt lat="45.44251" lon="6.3286">
        <ele>1728</ele>
        <time>2011-08-20T12:13:52Z</time>
      </trkpt>
      <trkpt lat="45.44271" lon="6.32854">
        <ele>1725.6666</ele>
        <time>2011-08-20T12:13:57Z</time>
      </trkpt>
      <trkpt lat="45.4429" lon="6.32851">
        <ele>1724.6666</ele>
        <time>2011-08-20T12:14:05Z</time>
      </trkpt>
      <trkpt lat="45.44307" lon="6.32827">
        <ele>1718</ele>
        <time>2011-08-20T12:16:34Z</time>
      </trkpt>
      <trkpt lat="45.44319" lon="6.32799">
        <ele>1711.6666</ele>
        <time>2011-08-20T12:16:51Z</time>
      </trkpt>
      <trkpt lat="45.44326" lon="6.32775">
        <ele>1705.3334</ele>
        <time>2011-08-20T12:17:36Z</time>
      </trkpt>
      <trkpt lat="45.44335" lon="6.32751">
        <ele>1703.6666</ele>
        <time>2011-08-20T12:18:06Z</time>
      </trkpt>
      <trkpt lat="45.44348" lon="6.3273">
        <ele>1701.6666</ele>
        <time>2011-08-20T12:18:26Z</time>
      </trkpt>
      <trkpt lat="45.44365" lon="6.32712">
        <ele>1699</ele>
        <time>2011-08-20T12:18:50Z</time>
      </trkpt>
      <trkpt lat="45.44385" lon="6.32704">
        <ele>1698</ele>
        <time>2011-08-20T12:19:21Z</time>
      </trkpt>
      <trkpt lat="45.44405" lon="6.32707">
        <ele>1697</ele>
        <time>2011-08-20T12:19:30Z</time>
      </trkpt>
      <trkpt lat="45.44423" lon="6.32701">
        <ele>1697.3334</ele>
        <time>2011-08-20T12:19:55Z</time>
      </trkpt>
      <trkpt lat="45.44442" lon="6.32705">
        <ele>1699.3334</ele>
        <time>2011-08-20T12:21:01Z</time>
      </trkpt>
      <trkpt lat="45.44456" lon="6.32687">
        <ele>1703</ele>
        <time>2011-08-20T12:22:51Z</time>
      </trkpt>
      <trkpt lat="45.44473" lon="6.32672">
        <ele>1705.6666</ele>
        <time>2011-08-20T12:23:48Z</time>
      </trkpt>
      <trkpt lat="45.44489" lon="6.32657">
        <ele>1709</ele>
        <time>2011-08-20T12:24:56Z</time>
      </trkpt>
      <trkpt lat="45.44495" lon="6.3263">
        <ele>1713.6666</ele>
        <time>2011-08-20T12:25:52Z</time>
      </trkpt>
      <trkpt lat="45.44502" lon="6.32601">
        <ele>1719.3334</ele>
        <time>2011-08-20T12:27:15Z</time>
      </trkpt>
      <trkpt lat="45.44515" lon="6.32578">
        <ele>1720.6666</ele>
        <time>2011-08-20T12:27:41Z</time>
      </trkpt>
      <trkpt lat="45.44528" lon="6.32556">
        <ele>1721</ele>
        <time>2011-08-20T12:28:02Z</time>
      </trkpt>
      <trkpt lat="45.44538" lon="6.32531">
        <ele>1722</ele>
        <time>2011-08-20T12:28:41Z</time>
      </trkpt>
      <trkpt lat="45.44551" lon="6.32508">
        <ele>1725.3334</ele>
        <time>2011-08-20T12:28:59Z</time>
      </trkpt>
      <trkpt lat="45.44566" lon="6.32493">
        <ele>1726.3334</ele>
        <time>2011-08-20T12:29:14Z</time>
      </trkpt>
      <trkpt lat="45.44578" lon="6.32469">
        <ele>1724.3334</ele>
        <time>2011-08-20T12:43:44Z</time>
      </trkpt>
      <trkpt lat="45.44593" lon="6.32451">
        <ele>1721</ele>
        <time>2011-08-20T12:43:52Z</time>
      </trkpt>
      <trkpt lat="45.44595" lon="6.32423">
        <ele>1714.6666</ele>
        <time>2011-08-20T12:44:02Z</time>
      </trkpt>
      <trkpt lat="45.44612" lon="6.32403">
        <ele>1708.3334</ele>
        <time>2011-08-20T12:44:10Z</time>
      </trkpt>
      <trkpt lat="45.44628" lon="6.32387">
        <ele>1701</ele>
        <time>2011-08-20T12:44:19Z</time>
      </trkpt>
      <trkpt lat="45.44642" lon="6.3237">
        <ele>1694.6666</ele>
        <time>2011-08-20T12:44:37Z</time>
      </trkpt>
      <trkpt lat="45.44635" lon="6.32347">
        <ele>1687.6666</ele>
        <time>2011-08-20T12:44:53Z</time>
      </trkpt>
      <trkpt lat="45.44635" lon="6.32321">
        <ele>1678</ele>
        <time>2011-08-20T12:45:20Z</time>
      </trkpt>
      <trkpt lat="45.44649" lon="6.32303">
        <ele>1669</ele>
        <time>2011-08-20T12:45:29Z</time>
      </trkpt>
      <trkpt lat="45.44664" lon="6.32288">
        <ele>1660.6666</ele>
        <time>2011-08-20T12:46:07Z</time>
      </trkpt>
      <trkpt lat="45.44678" lon="6.32271">
        <ele>1654.3334</ele>
        <time>2011-08-20T12:46:54Z</time>
      </trkpt>
      <trkpt lat="45.44666" lon="6.32252">
        <ele>1647</ele>
        <time>2011-08-20T12:47:03Z</time>
      </trkpt>
      <trkpt lat="45.44663" lon="6.32226">
        <ele>1639.3334</ele>
        <time>2011-08-20T12:47:13Z</time>
      </trkpt>
      <trkpt lat="45.44681" lon="6.32216">
        <ele>1632.6666</ele>
        <time>2011-08-20T12:47:20Z</time>
      </trkpt>
      <trkpt lat="45.44686" lon="6.32187">
        <ele>1625</ele>
        <time>2011-08-20T12:47:32Z</time>
      </trkpt>
      <trkpt lat="45.44685" lon="6.32161">
        <ele>1617.6666</ele>
        <time>2011-08-20T12:47:40Z</time>
      </trkpt>
      <trkpt lat="45.44676" lon="6.32136">
        <ele>1608</ele>
        <time>2011-08-20T12:47:54Z</time>
      </trkpt>
      <trkpt lat="45.44663" lon="6.32115">
        <ele>1600.6666</ele>
        <time>2011-08-20T12:48:01Z</time>
      </trkpt>
      <trkpt lat="45.44675" lon="6.32094">
        <ele>1590.6666</ele>
        <time>2011-08-20T12:48:10Z</time>
      </trkpt>
      <trkpt lat="45.44692" lon="6.32078">
        <ele>1583.3334</ele>
        <time>2011-08-20T12:48:18Z</time>
      </trkpt>
      <trkpt lat="45.44696" lon="6.32053">
        <ele>1577</ele>
        <time>2011-08-20T12:48:50Z</time>
      </trkpt>
      <trkpt lat="45.44686" lon="6.3203">
        <ele>1574.6666</ele>
        <time>2011-08-20T12:49:01Z</time>
      </trkpt>
      <trkpt lat="45.44698" lon="6.32008">
        <ele>1569.6666</ele>
        <time>2011-08-20T12:49:14Z</time>
      </trkpt>
      <trkpt lat="45.44716" lon="6.32">
        <ele>1564.6666</ele>
        <time>2011-08-20T12:49:19Z</time>
      </trkpt>
      <trkpt lat="45.44734" lon="6.31993">
        <ele>1559</ele>
        <time>2011-08-20T12:49:26Z</time>
      </trkpt>
      <trkpt lat="45.44749" lon="6.32008">
        <ele>1547.6666</ele>
        <time>2011-08-20T12:51:16Z</time>
      </trkpt>
      <trkpt lat="45.44768" lon="6.31998">
        <ele>1536.3334</ele>
        <time>2011-08-20T12:51:23Z</time>
      </trkpt>
      <trkpt lat="45.44778" lon="6.31976">
        <ele>1519</ele>
        <time>2011-08-20T12:51:47Z</time>
      </trkpt>
      <trkpt lat="45.44775" lon="6.3195">
        <ele>1506</ele>
        <time>2011-08-20T12:52:16Z</time>
      </trkpt>
      <trkpt lat="45.44787" lon="6.31931">
        <ele>1491.6666</ele>
        <time>2011-08-20T12:54:09Z</time>
      </trkpt>
      <trkpt lat="45.44807" lon="6.31934">
        <ele>1482</ele>
        <time>2011-08-20T12:54:18Z</time>
      </trkpt>
      <trkpt lat="45.44825" lon="6.3194">
        <ele>1475</ele>
        <time>2011-08-20T12:54:25Z</time>
      </trkpt>
      <trkpt lat="45.44832" lon="6.31965">
        <ele>1467</ele>
        <time>2011-08-20T12:54:42Z</time>
      </trkpt>
      <trkpt lat="45.44837" lon="6.3194">
        <ele>1459</ele>
        <time>2011-08-20T12:55:34Z</time>
      </trkpt>
      <trkpt lat="45.44823" lon="6.3191">
        <ele>1451</ele>
        <time>2011-08-20T12:55:40Z</time>
      </trkpt>
      <trkpt lat="45.44812" lon="6.31888">
        <ele>1443.6666</ele>
        <time>2011-08-20T12:55:45Z</time>
      </trkpt>
      <trkpt lat="45.44796" lon="6.31866">
        <ele>1437</ele>
        <time>2011-08-20T12:55:49Z</time>
      </trkpt>
      <trkpt lat="45.44782" lon="6.31841">
        <ele>1430</ele>
        <time>2011-08-20T12:55:53Z</time>
      </trkpt>
      <trkpt lat="45.44768" lon="6.31823">
        <ele>1423</ele>
        <time>2011-08-20T12:55:56Z</time>
      </trkpt>
      <trkpt lat="45.44756" lon="6.31796">
        <ele>1414</ele>
        <time>2011-08-20T12:56:01Z</time>
      </trkpt>
      <trkpt lat="45.44742" lon="6.31779">
        <ele>1405</ele>
        <time>2011-08-20T12:56:58Z</time>
      </trkpt>
      <trkpt lat="45.44723" lon="6.31778">
        <ele>1398.3334</ele>
        <time>2011-08-20T12:57:08Z</time>
      </trkpt>
      <trkpt lat="45.44704" lon="6.31769">
        <ele>1395</ele>
        <time>2011-08-20T12:57:12Z</time>
      </trkpt>
      <trkpt lat="45.44685" lon="6.31758">
        <ele>1394</ele>
        <time>2011-08-20T12:57:16Z</time>
      </trkpt>
      <trkpt lat="45.44663" lon="6.31752">
        <ele>1393.3334</ele>
        <time>2011-08-20T12:57:20Z</time>
      </trkpt>
      <trkpt lat="45.44639" lon="6.31748">
        <ele>1393</ele>
        <time>2011-08-20T12:57:24Z</time>
      </trkpt>
      <trkpt lat="45.44619" lon="6.31743">
        <ele>1392.6666</ele>
        <time>2011-08-20T12:57:29Z</time>
      </trkpt>
      <trkpt lat="45.44595" lon="6.3174">
        <ele>1390.6666</ele>
        <time>2011-08-20T12:57:37Z</time>
      </trkpt>
      <trkpt lat="45.44603" lon="6.31717">
        <ele>1384.3334</ele>
        <time>2011-08-20T12:58:52Z</time>
      </trkpt>
      <trkpt lat="45.44621" lon="6.31706">
        <ele>1378</ele>
        <time>2011-08-20T12:58:58Z</time>
      </trkpt>
      <trkpt lat="45.44637" lon="6.31693">
        <ele>1373.3334</ele>
        <time>2011-08-20T12:59:03Z</time>
      </trkpt>
      <trkpt lat="45.44656" lon="6.31682">
        <ele>1373</ele>
        <time>2011-08-20T12:59:08Z</time>
      </trkpt>
      <trkpt lat="45.44673" lon="6.31666">
        <ele>1372</ele>
        <time>2011-08-20T12:59:53Z</time>
      </trkpt>
      <trkpt lat="45.44689" lon="6.31652">
        <ele>1370.3334</ele>
        <time>2011-08-20T13:00:00Z</time>
      </trkpt>
      <trkpt lat="45.44708" lon="6.31644">
        <ele>1367.6666</ele>
        <time>2011-08-20T13:00:05Z</time>
      </trkpt>
      <trkpt lat="45.44728" lon="6.31632">
        <ele>1365</ele>
        <time>2011-08-20T13:02:28Z</time>
      </trkpt>
      <trkpt lat="45.44746" lon="6.31631">
        <ele>1361</ele>
        <time>2011-08-20T13:02:43Z</time>
      </trkpt>
      <trkpt lat="45.44764" lon="6.31618">
        <ele>1356.6666</ele>
        <time>2011-08-20T13:02:52Z</time>
      </trkpt>
      <trkpt lat="45.4478" lon="6.31605">
        <ele>1347.6666</ele>
        <time>2011-08-20T13:03:08Z</time>
      </trkpt>
      <trkpt lat="45.44798" lon="6.31599">
        <ele>1339</ele>
        <time>2011-08-20T13:03:17Z</time>
      </trkpt>
      <trkpt lat="45.448" lon="6.31572">
        <ele>1327.3334</ele>
        <time>2011-08-20T13:04:22Z</time>
      </trkpt>
      <trkpt lat="45.44818" lon="6.31569">
        <ele>1317.3334</ele>
        <time>2011-08-20T13:04:35Z</time>
      </trkpt>
      <trkpt lat="45.44821" lon="6.31542">
        <ele>1308.3334</ele>
        <time>2011-08-20T13:04:43Z</time>
      </trkpt>
      <trkpt lat="45.44821" lon="6.31513">
        <ele>1303</ele>
        <time>2011-08-20T13:04:50Z</time>
      </trkpt>
      <trkpt lat="45.44812" lon="6.31489">
        <ele>1300.3334</ele>
        <time>2011-08-20T13:04:59Z</time>
      </trkpt>
      <trkpt lat="45.44835" lon="6.31484">
        <ele>1293.3334</ele>
        <time>2011-08-20T13:05:48Z</time>
      </trkpt>
      <trkpt lat="45.44854" lon="6.31482">
        <ele>1283.3334</ele>
        <time>2011-08-20T13:05:59Z</time>
      </trkpt>
      <trkpt lat="45.44858" lon="6.31454">
        <ele>1273.6666</ele>
        <time>2011-08-20T13:06:06Z</time>
      </trkpt>
      <trkpt lat="45.4485" lon="6.3143">
        <ele>1266</ele>
        <time>2011-08-20T13:06:14Z</time>
      </trkpt>
      <trkpt lat="45.44844" lon="6.31396">
        <ele>1256</ele>
        <time>2011-08-20T13:07:35Z</time>
      </trkpt>
      <trkpt lat="45.44838" lon="6.31371">
        <ele>1242.6666</ele>
        <time>2011-08-20T13:07:44Z</time>
      </trkpt>
      <trkpt lat="45.44821" lon="6.3136">
        <ele>1229.6666</ele>
        <time>2011-08-20T13:07:49Z</time>
      </trkpt>
      <trkpt lat="45.44834" lon="6.31339">
        <ele>1220.3334</ele>
        <time>2011-08-20T13:08:32Z</time>
      </trkpt>
      <trkpt lat="45.44848" lon="6.31323">
        <ele>1213</ele>
        <time>2011-08-20T13:08:40Z</time>
      </trkpt>
      <trkpt lat="45.44845" lon="6.31295">
        <ele>1205</ele>
        <time>2011-08-20T13:08:50Z</time>
      </trkpt>
      <trkpt lat="45.44839" lon="6.31271">
        <ele>1198</ele>
        <time>2011-08-20T13:09:23Z</time>
      </trkpt>
      <trkpt lat="45.44828" lon="6.31246">
        <ele>1192</ele>
        <time>2011-08-20T13:09:32Z</time>
      </trkpt>
      <trkpt lat="45.44812" lon="6.31228">
        <ele>1188.3334</ele>
        <time>2011-08-20T13:09:42Z</time>
      </trkpt>
      <trkpt lat="45.44804" lon="6.31204">
        <ele>1182.3334</ele>
        <time>2011-08-20T13:10:00Z</time>
      </trkpt>
      <trkpt lat="45.4481" lon="6.31179">
        <ele>1172.3334</ele>
        <time>2011-08-20T13:10:14Z</time>
      </trkpt>
      <trkpt lat="45.44829" lon="6.31168">
        <ele>1158.6666</ele>
        <time>2011-08-20T13:10:59Z</time>
      </trkpt>
      <trkpt lat="45.44848" lon="6.31175">
        <ele>1147.3334</ele>
        <time>2011-08-20T13:11:03Z</time>
      </trkpt>
      <trkpt lat="45.44866" lon="6.3118">
        <ele>1140.3334</ele>
        <time>2011-08-20T13:11:08Z</time>
      </trkpt>
      <trkpt lat="45.44887" lon="6.31188">
        <ele>1134.6666</ele>
        <time>2011-08-20T13:11:13Z</time>
      </trkpt>
      <trkpt lat="45.44906" lon="6.31199">
        <ele>1127.3334</ele>
        <time>2011-08-20T13:11:18Z</time>
      </trkpt>
      <trkpt lat="45.44926" lon="6.31205">
        <ele>1118.3334</ele>
        <time>2011-08-20T13:11:22Z</time>
      </trkpt>
      <trkpt lat="45.44944" lon="6.31221">
        <ele>1111.3334</ele>
        <time>2011-08-20T13:11:29Z</time>
      </trkpt>
      <trkpt lat="45.44961" lon="6.31233">
        <ele>1106.6666</ele>
        <time>2011-08-20T13:11:36Z</time>
      </trkpt>
      <trkpt lat="45.44983" lon="6.31228">
        <ele>1103.3334</ele>
        <time>2011-08-20T13:11:42Z</time>
      </trkpt>
      <trkpt lat="45.45003" lon="6.31222">
        <ele>1100.3334</ele>
        <time>2011-08-20T13:11:49Z</time>
      </trkpt>
      <trkpt lat="45.45019" lon="6.3124">
        <ele>1097.6666</ele>
        <time>2011-08-20T13:11:57Z</time>
      </trkpt>
      <trkpt lat="45.45042" lon="6.31239">
        <ele>1091.6666</ele>
        <time>2011-08-20T13:13:02Z</time>
      </trkpt>
      <trkpt lat="45.4506" lon="6.31231">
        <ele>1084.6666</ele>
        <time>2011-08-20T13:13:17Z</time>
      </trkpt>
      <trkpt lat="45.45076" lon="6.31214">
        <ele>1074.6666</ele>
        <time>2011-08-20T13:13:32Z</time>
      </trkpt>
      <trkpt lat="45.45094" lon="6.31229">
        <ele>1065.6666</ele>
        <time>2011-08-20T13:16:21Z</time>
      </trkpt>
    </trkseg>
  </trk>
</gpx>